<?xml version="1.0" encoding="UTF-8" standalone="no" ?>
<gpx xmlns="http://www.topografix.com/GPX/1/1" xmlns:xsi="http://www.w3.org/2001/XMLSchema-instance" xsi:schemaLocation="http://www.topografix.com/GPX/1/1 http://www.topografix.com/GPX/1/1/gpx.xsd" version="1.1" creator="VisuGPX - https://www.visugpx.com">
  <metadata>
    <name>Vosges-Juin2021</name>
  </metadata>
  <trk>
    <name><![CDATA[2021-06-18-Schantzwasen,Xonrupt-Longemer]]></name>
    <extensions>
      <line xmlns="http://www.topografix.com/GPX/gpx_style/0/2">
        <color>00FFFF</color>
        <width>4</width>
      </line>
    </extensions>
    <trkseg>
      <trkpt lat="48.07818" lon="7.05984">
        <ele>1107.99</ele>
        <time>2021-06-23T09:24:42Z</time>
      </trkpt>
      <trkpt lat="48.07818" lon="7.05984">
        <ele>1107.99</ele>
        <time>2021-06-23T09:24:42Z</time>
      </trkpt>
      <trkpt lat="48.07772" lon="7.0604">
        <ele>1102.91</ele>
        <time>2021-06-23T09:24:55Z</time>
      </trkpt>
      <trkpt lat="48.07752" lon="7.06061">
        <ele>1101.23</ele>
        <time>2021-06-23T09:25:08Z</time>
      </trkpt>
      <trkpt lat="48.07631" lon="7.06162">
        <ele>1087.11</ele>
        <time>2021-06-23T09:25:21Z</time>
      </trkpt>
      <trkpt lat="48.07531" lon="7.0628">
        <ele>1075.74</ele>
        <time>2021-06-23T09:25:34Z</time>
      </trkpt>
      <trkpt lat="48.07526" lon="7.06281">
        <ele>1074.99</ele>
        <time>2021-06-23T09:25:47Z</time>
      </trkpt>
      <trkpt lat="48.07526" lon="7.06281">
        <ele>1074.83</ele>
        <time>2021-06-23T09:25:47Z</time>
      </trkpt>
      <trkpt lat="48.07526" lon="7.06281">
        <ele>1074.83</ele>
        <time>2021-06-23T09:25:47Z</time>
      </trkpt>
      <trkpt lat="48.07526" lon="7.06281">
        <ele>1074.99</ele>
        <time>2021-06-23T09:25:47Z</time>
      </trkpt>
      <trkpt lat="48.07523" lon="7.06278">
        <ele>1074.39</ele>
        <time>2021-06-23T09:25:51Z</time>
      </trkpt>
      <trkpt lat="48.07524" lon="7.06271">
        <ele>1074.19</ele>
        <time>2021-06-23T09:25:55Z</time>
      </trkpt>
      <trkpt lat="48.07541" lon="7.06228">
        <ele>1075.52</ele>
        <time>2021-06-23T09:25:59Z</time>
      </trkpt>
      <trkpt lat="48.07548" lon="7.06197">
        <ele>1076.38</ele>
        <time>2021-06-23T09:26:03Z</time>
      </trkpt>
      <trkpt lat="48.07549" lon="7.06182">
        <ele>1075.66</ele>
        <time>2021-06-23T09:26:07Z</time>
      </trkpt>
      <trkpt lat="48.07545" lon="7.06095">
        <ele>1066.73</ele>
        <time>2021-06-23T09:26:10Z</time>
      </trkpt>
      <trkpt lat="48.07551" lon="7.06058">
        <ele>1062.71</ele>
        <time>2021-06-23T09:26:14Z</time>
      </trkpt>
      <trkpt lat="48.07563" lon="7.05939">
        <ele>1052.46</ele>
        <time>2021-06-23T09:26:18Z</time>
      </trkpt>
      <trkpt lat="48.0757" lon="7.05894">
        <ele>1048.48</ele>
        <time>2021-06-23T09:26:22Z</time>
      </trkpt>
      <trkpt lat="48.07581" lon="7.05879">
        <ele>1048.81</ele>
        <time>2021-06-23T09:26:26Z</time>
      </trkpt>
      <trkpt lat="48.07583" lon="7.05869">
        <ele>1048.08</ele>
        <time>2021-06-23T09:26:30Z</time>
      </trkpt>
      <trkpt lat="48.07581" lon="7.05862">
        <ele>1046.45</ele>
        <time>2021-06-23T09:26:34Z</time>
      </trkpt>
      <trkpt lat="48.07578" lon="7.05858">
        <ele>1044.8</ele>
        <time>2021-06-23T09:26:38Z</time>
      </trkpt>
      <trkpt lat="48.07572" lon="7.05857">
        <ele>1043.04</ele>
        <time>2021-06-23T09:26:41Z</time>
      </trkpt>
      <trkpt lat="48.07565" lon="7.05862">
        <ele>1042.46</ele>
        <time>2021-06-23T09:26:45Z</time>
      </trkpt>
      <trkpt lat="48.07565" lon="7.05862">
        <ele>1042.46</ele>
        <time>2021-06-23T09:26:45Z</time>
      </trkpt>
      <trkpt lat="48.07512" lon="7.05987">
        <ele>1049.57</ele>
        <time>2021-06-23T09:26:59Z</time>
      </trkpt>
      <trkpt lat="48.07428" lon="7.06122">
        <ele>1044.98</ele>
        <time>2021-06-23T09:27:12Z</time>
      </trkpt>
      <trkpt lat="48.07323" lon="7.06278">
        <ele>1034.56</ele>
        <time>2021-06-23T09:27:26Z</time>
      </trkpt>
      <trkpt lat="48.07303" lon="7.06314">
        <ele>1033.06</ele>
        <time>2021-06-23T09:27:39Z</time>
      </trkpt>
      <trkpt lat="48.07297" lon="7.06331">
        <ele>1033.01</ele>
        <time>2021-06-23T09:27:53Z</time>
      </trkpt>
      <trkpt lat="48.0729" lon="7.06366">
        <ele>1032.05</ele>
        <time>2021-06-23T09:28:06Z</time>
      </trkpt>
      <trkpt lat="48.0729" lon="7.06366">
        <ele>1032.05</ele>
        <time>2021-06-23T09:28:06Z</time>
      </trkpt>
      <trkpt lat="48.07287" lon="7.06417">
        <ele>1029.58</ele>
        <time>2021-06-23T09:28:12Z</time>
      </trkpt>
      <trkpt lat="48.07291" lon="7.06471">
        <ele>1031.94</ele>
        <time>2021-06-23T09:28:17Z</time>
      </trkpt>
      <trkpt lat="48.07283" lon="7.06535">
        <ele>1025.81</ele>
        <time>2021-06-23T09:28:23Z</time>
      </trkpt>
      <trkpt lat="48.07282" lon="7.06562">
        <ele>1023.19</ele>
        <time>2021-06-23T09:28:28Z</time>
      </trkpt>
      <trkpt lat="48.07286" lon="7.06603">
        <ele>1021.21</ele>
        <time>2021-06-23T09:28:34Z</time>
      </trkpt>
      <trkpt lat="48.07286" lon="7.06628">
        <ele>1018.97</ele>
        <time>2021-06-23T09:28:39Z</time>
      </trkpt>
      <trkpt lat="48.07285" lon="7.06668">
        <ele>1016.98</ele>
        <time>2021-06-23T09:28:45Z</time>
      </trkpt>
      <trkpt lat="48.07286" lon="7.06739">
        <ele>1013.97</ele>
        <time>2021-06-23T09:28:50Z</time>
      </trkpt>
      <trkpt lat="48.07284" lon="7.06765">
        <ele>1011.9</ele>
        <time>2021-06-23T09:28:55Z</time>
      </trkpt>
      <trkpt lat="48.07276" lon="7.06819">
        <ele>1007.37</ele>
        <time>2021-06-23T09:29:01Z</time>
      </trkpt>
      <trkpt lat="48.07273" lon="7.06867">
        <ele>1006.69</ele>
        <time>2021-06-23T09:29:06Z</time>
      </trkpt>
      <trkpt lat="48.07267" lon="7.06909">
        <ele>1005.51</ele>
        <time>2021-06-23T09:29:12Z</time>
      </trkpt>
      <trkpt lat="48.07257" lon="7.06949">
        <ele>1001.1</ele>
        <time>2021-06-23T09:29:17Z</time>
      </trkpt>
      <trkpt lat="48.07251" lon="7.06996">
        <ele>993.6</ele>
        <time>2021-06-23T09:29:23Z</time>
      </trkpt>
      <trkpt lat="48.07248" lon="7.07026">
        <ele>991.6</ele>
        <time>2021-06-23T09:29:28Z</time>
      </trkpt>
      <trkpt lat="48.07251" lon="7.07061">
        <ele>988.82</ele>
        <time>2021-06-23T09:29:34Z</time>
      </trkpt>
      <trkpt lat="48.07251" lon="7.07061">
        <ele>988.82</ele>
        <time>2021-06-23T09:29:34Z</time>
      </trkpt>
      <trkpt lat="48.07265" lon="7.07113">
        <ele>986.96</ele>
        <time>2021-06-23T09:29:43Z</time>
      </trkpt>
      <trkpt lat="48.07289" lon="7.07177">
        <ele>982.08</ele>
        <time>2021-06-23T09:29:51Z</time>
      </trkpt>
      <trkpt lat="48.07315" lon="7.07225">
        <ele>980.24</ele>
        <time>2021-06-23T09:30:00Z</time>
      </trkpt>
      <trkpt lat="48.07404" lon="7.07382">
        <ele>967.45</ele>
        <time>2021-06-23T09:30:09Z</time>
      </trkpt>
      <trkpt lat="48.07421" lon="7.07403">
        <ele>966.25</ele>
        <time>2021-06-23T09:30:17Z</time>
      </trkpt>
      <trkpt lat="48.07434" lon="7.07415">
        <ele>966.4</ele>
        <time>2021-06-23T09:30:26Z</time>
      </trkpt>
      <trkpt lat="48.07452" lon="7.07468">
        <ele>960.22</ele>
        <time>2021-06-23T09:30:35Z</time>
      </trkpt>
      <trkpt lat="48.07469" lon="7.07506">
        <ele>957.68</ele>
        <time>2021-06-23T09:30:44Z</time>
      </trkpt>
      <trkpt lat="48.07503" lon="7.07613">
        <ele>951.33</ele>
        <time>2021-06-23T09:30:52Z</time>
      </trkpt>
      <trkpt lat="48.0752" lon="7.0765">
        <ele>948.3</ele>
        <time>2021-06-23T09:31:01Z</time>
      </trkpt>
      <trkpt lat="48.07557" lon="7.07745">
        <ele>942.82</ele>
        <time>2021-06-23T09:31:10Z</time>
      </trkpt>
      <trkpt lat="48.07559" lon="7.07762">
        <ele>941.51</ele>
        <time>2021-06-23T09:31:19Z</time>
      </trkpt>
      <trkpt lat="48.07559" lon="7.07762">
        <ele>941.6</ele>
        <time>2021-06-23T09:31:19Z</time>
      </trkpt>
      <trkpt lat="48.07559" lon="7.07762">
        <ele>941.6</ele>
        <time>2021-06-23T09:31:19Z</time>
      </trkpt>
      <trkpt lat="48.07551" lon="7.07761">
        <ele>941.68</ele>
        <time>2021-06-23T09:31:22Z</time>
      </trkpt>
      <trkpt lat="48.07546" lon="7.07758">
        <ele>941.82</ele>
        <time>2021-06-23T09:31:26Z</time>
      </trkpt>
      <trkpt lat="48.07513" lon="7.07698">
        <ele>941.51</ele>
        <time>2021-06-23T09:31:29Z</time>
      </trkpt>
      <trkpt lat="48.07466" lon="7.07641">
        <ele>935.84</ele>
        <time>2021-06-23T09:31:33Z</time>
      </trkpt>
      <trkpt lat="48.07414" lon="7.0757">
        <ele>926.63</ele>
        <time>2021-06-23T09:31:36Z</time>
      </trkpt>
      <trkpt lat="48.07375" lon="7.07511">
        <ele>921.98</ele>
        <time>2021-06-23T09:31:39Z</time>
      </trkpt>
      <trkpt lat="48.07359" lon="7.07477">
        <ele>923.81</ele>
        <time>2021-06-23T09:31:43Z</time>
      </trkpt>
      <trkpt lat="48.07353" lon="7.07468">
        <ele>924.15</ele>
        <time>2021-06-23T09:31:46Z</time>
      </trkpt>
      <trkpt lat="48.07347" lon="7.07464">
        <ele>923.18</ele>
        <time>2021-06-23T09:31:50Z</time>
      </trkpt>
      <trkpt lat="48.0734" lon="7.07466">
        <ele>919.55</ele>
        <time>2021-06-23T09:31:53Z</time>
      </trkpt>
      <trkpt lat="48.0734" lon="7.07466">
        <ele>917.85</ele>
        <time>2021-06-23T09:31:54Z</time>
      </trkpt>
      <trkpt lat="48.0734" lon="7.07466">
        <ele>917.85</ele>
        <time>2021-06-23T09:31:54Z</time>
      </trkpt>
      <trkpt lat="48.07337" lon="7.07473">
        <ele>916.15</ele>
        <time>2021-06-23T09:31:57Z</time>
      </trkpt>
      <trkpt lat="48.07338" lon="7.07483">
        <ele>914.6</ele>
        <time>2021-06-23T09:32:00Z</time>
      </trkpt>
      <trkpt lat="48.07345" lon="7.07498">
        <ele>913.36</ele>
        <time>2021-06-23T09:32:04Z</time>
      </trkpt>
      <trkpt lat="48.07378" lon="7.07612">
        <ele>912.07</ele>
        <time>2021-06-23T09:32:07Z</time>
      </trkpt>
      <trkpt lat="48.07386" lon="7.07647">
        <ele>910.97</ele>
        <time>2021-06-23T09:32:10Z</time>
      </trkpt>
      <trkpt lat="48.0739" lon="7.07684">
        <ele>909.98</ele>
        <time>2021-06-23T09:32:13Z</time>
      </trkpt>
      <trkpt lat="48.07382" lon="7.07725">
        <ele>908.08</ele>
        <time>2021-06-23T09:32:17Z</time>
      </trkpt>
      <trkpt lat="48.07372" lon="7.07767">
        <ele>905.13</ele>
        <time>2021-06-23T09:32:20Z</time>
      </trkpt>
      <trkpt lat="48.07353" lon="7.07816">
        <ele>904.07</ele>
        <time>2021-06-23T09:32:23Z</time>
      </trkpt>
      <trkpt lat="48.07329" lon="7.07848">
        <ele>903.95</ele>
        <time>2021-06-23T09:32:27Z</time>
      </trkpt>
      <trkpt lat="48.07329" lon="7.07848">
        <ele>903.95</ele>
        <time>2021-06-23T09:32:27Z</time>
      </trkpt>
      <trkpt lat="48.07294" lon="7.07883">
        <ele>902.05</ele>
        <time>2021-06-23T09:32:34Z</time>
      </trkpt>
      <trkpt lat="48.0725" lon="7.07909">
        <ele>894.62</ele>
        <time>2021-06-23T09:32:41Z</time>
      </trkpt>
      <trkpt lat="48.07177" lon="7.07923">
        <ele>889.56</ele>
        <time>2021-06-23T09:32:48Z</time>
      </trkpt>
      <trkpt lat="48.07147" lon="7.07924">
        <ele>885.46</ele>
        <time>2021-06-23T09:32:55Z</time>
      </trkpt>
      <trkpt lat="48.07037" lon="7.0789">
        <ele>879.64</ele>
        <time>2021-06-23T09:33:02Z</time>
      </trkpt>
      <trkpt lat="48.07003" lon="7.07876">
        <ele>875.29</ele>
        <time>2021-06-23T09:33:09Z</time>
      </trkpt>
      <trkpt lat="48.06966" lon="7.07876">
        <ele>871.97</ele>
        <time>2021-06-23T09:33:16Z</time>
      </trkpt>
      <trkpt lat="48.0693" lon="7.07886">
        <ele>870.2</ele>
        <time>2021-06-23T09:33:23Z</time>
      </trkpt>
      <trkpt lat="48.06833" lon="7.07931">
        <ele>860.01</ele>
        <time>2021-06-23T09:33:30Z</time>
      </trkpt>
      <trkpt lat="48.06741" lon="7.07987">
        <ele>847.86</ele>
        <time>2021-06-23T09:33:37Z</time>
      </trkpt>
      <trkpt lat="48.06651" lon="7.08037">
        <ele>840.39</ele>
        <time>2021-06-23T09:33:44Z</time>
      </trkpt>
      <trkpt lat="48.06634" lon="7.0805">
        <ele>838.99</ele>
        <time>2021-06-23T09:33:51Z</time>
      </trkpt>
      <trkpt lat="48.06634" lon="7.0805">
        <ele>838.99</ele>
        <time>2021-06-23T09:33:51Z</time>
      </trkpt>
      <trkpt lat="48.0662" lon="7.08064">
        <ele>836.27</ele>
        <time>2021-06-23T09:33:55Z</time>
      </trkpt>
      <trkpt lat="48.06609" lon="7.08081">
        <ele>835.55</ele>
        <time>2021-06-23T09:33:59Z</time>
      </trkpt>
      <trkpt lat="48.06598" lon="7.08105">
        <ele>835.25</ele>
        <time>2021-06-23T09:34:03Z</time>
      </trkpt>
      <trkpt lat="48.06588" lon="7.08161">
        <ele>833.64</ele>
        <time>2021-06-23T09:34:07Z</time>
      </trkpt>
      <trkpt lat="48.06581" lon="7.08222">
        <ele>834.35</ele>
        <time>2021-06-23T09:34:12Z</time>
      </trkpt>
      <trkpt lat="48.06573" lon="7.08267">
        <ele>833.48</ele>
        <time>2021-06-23T09:34:16Z</time>
      </trkpt>
      <trkpt lat="48.06554" lon="7.0834">
        <ele>829.95</ele>
        <time>2021-06-23T09:34:20Z</time>
      </trkpt>
      <trkpt lat="48.06508" lon="7.0849">
        <ele>821.77</ele>
        <time>2021-06-23T09:34:24Z</time>
      </trkpt>
      <trkpt lat="48.06505" lon="7.08518">
        <ele>819.85</ele>
        <time>2021-06-23T09:34:28Z</time>
      </trkpt>
      <trkpt lat="48.06509" lon="7.08579">
        <ele>811.51</ele>
        <time>2021-06-23T09:34:32Z</time>
      </trkpt>
      <trkpt lat="48.06507" lon="7.08589">
        <ele>809.55</ele>
        <time>2021-06-23T09:34:36Z</time>
      </trkpt>
      <trkpt lat="48.06501" lon="7.08592">
        <ele>807.99</ele>
        <time>2021-06-23T09:34:37Z</time>
      </trkpt>
      <trkpt lat="48.06493" lon="7.08591">
        <ele>806.64</ele>
        <time>2021-06-23T09:34:38Z</time>
      </trkpt>
      <trkpt lat="48.06493" lon="7.08591">
        <ele>806.64</ele>
        <time>2021-06-23T09:34:38Z</time>
      </trkpt>
      <trkpt lat="48.06489" lon="7.08589">
        <ele>806.52</ele>
        <time>2021-06-23T09:34:41Z</time>
      </trkpt>
      <trkpt lat="48.06483" lon="7.08579">
        <ele>807.26</ele>
        <time>2021-06-23T09:34:45Z</time>
      </trkpt>
      <trkpt lat="48.06472" lon="7.08551">
        <ele>809.51</ele>
        <time>2021-06-23T09:34:48Z</time>
      </trkpt>
      <trkpt lat="48.06451" lon="7.0851">
        <ele>809.85</ele>
        <time>2021-06-23T09:34:51Z</time>
      </trkpt>
      <trkpt lat="48.06446" lon="7.08496">
        <ele>809.44</ele>
        <time>2021-06-23T09:34:54Z</time>
      </trkpt>
      <trkpt lat="48.06441" lon="7.08473">
        <ele>809.21</ele>
        <time>2021-06-23T09:34:57Z</time>
      </trkpt>
      <trkpt lat="48.06436" lon="7.08437">
        <ele>807.84</ele>
        <time>2021-06-23T09:35:01Z</time>
      </trkpt>
      <trkpt lat="48.06435" lon="7.08401">
        <ele>805.27</ele>
        <time>2021-06-23T09:35:04Z</time>
      </trkpt>
      <trkpt lat="48.06438" lon="7.08377">
        <ele>803.71</ele>
        <time>2021-06-23T09:35:07Z</time>
      </trkpt>
      <trkpt lat="48.06475" lon="7.08264">
        <ele>801.04</ele>
        <time>2021-06-23T09:35:10Z</time>
      </trkpt>
      <trkpt lat="48.0648" lon="7.08244">
        <ele>801.3</ele>
        <time>2021-06-23T09:35:13Z</time>
      </trkpt>
      <trkpt lat="48.06483" lon="7.08218">
        <ele>800.18</ele>
        <time>2021-06-23T09:35:17Z</time>
      </trkpt>
      <trkpt lat="48.06483" lon="7.08173">
        <ele>797.12</ele>
        <time>2021-06-23T09:35:20Z</time>
      </trkpt>
      <trkpt lat="48.06465" lon="7.08033">
        <ele>784.78</ele>
        <time>2021-06-23T09:35:23Z</time>
      </trkpt>
      <trkpt lat="48.06462" lon="7.07986">
        <ele>780.94</ele>
        <time>2021-06-23T09:35:26Z</time>
      </trkpt>
      <trkpt lat="48.06463" lon="7.07946">
        <ele>778.63</ele>
        <time>2021-06-23T09:35:29Z</time>
      </trkpt>
      <trkpt lat="48.06468" lon="7.0792">
        <ele>778.59</ele>
        <time>2021-06-23T09:35:33Z</time>
      </trkpt>
      <trkpt lat="48.06477" lon="7.07892">
        <ele>778.79</ele>
        <time>2021-06-23T09:35:36Z</time>
      </trkpt>
      <trkpt lat="48.06477" lon="7.07892">
        <ele>778.79</ele>
        <time>2021-06-23T09:35:36Z</time>
      </trkpt>
      <trkpt lat="48.06489" lon="7.07865">
        <ele>777.53</ele>
        <time>2021-06-23T09:35:40Z</time>
      </trkpt>
      <trkpt lat="48.06499" lon="7.07849">
        <ele>776.52</ele>
        <time>2021-06-23T09:35:44Z</time>
      </trkpt>
      <trkpt lat="48.06616" lon="7.07758">
        <ele>770.87</ele>
        <time>2021-06-23T09:35:49Z</time>
      </trkpt>
      <trkpt lat="48.06647" lon="7.0773">
        <ele>769.61</ele>
        <time>2021-06-23T09:35:53Z</time>
      </trkpt>
      <trkpt lat="48.0666" lon="7.07715">
        <ele>768.92</ele>
        <time>2021-06-23T09:35:57Z</time>
      </trkpt>
      <trkpt lat="48.06701" lon="7.07644">
        <ele>766.08</ele>
        <time>2021-06-23T09:36:01Z</time>
      </trkpt>
      <trkpt lat="48.06721" lon="7.07617">
        <ele>769.26</ele>
        <time>2021-06-23T09:36:05Z</time>
      </trkpt>
      <trkpt lat="48.06722" lon="7.07602">
        <ele>767.29</ele>
        <time>2021-06-23T09:36:10Z</time>
      </trkpt>
      <trkpt lat="48.06717" lon="7.07591">
        <ele>763.65</ele>
        <time>2021-06-23T09:36:14Z</time>
      </trkpt>
      <trkpt lat="48.06741" lon="7.07559">
        <ele>765.93</ele>
        <time>2021-06-23T09:36:15Z</time>
      </trkpt>
      <trkpt lat="48.0676" lon="7.07544">
        <ele>766.95</ele>
        <time>2021-06-23T09:36:16Z</time>
      </trkpt>
      <trkpt lat="48.06769" lon="7.0754">
        <ele>767.37</ele>
        <time>2021-06-23T09:36:17Z</time>
      </trkpt>
      <trkpt lat="48.06808" lon="7.07533">
        <ele>770.24</ele>
        <time>2021-06-23T09:36:18Z</time>
      </trkpt>
      <trkpt lat="48.0686" lon="7.07537">
        <ele>775.92</ele>
        <time>2021-06-23T09:36:19Z</time>
      </trkpt>
      <trkpt lat="48.06877" lon="7.07535">
        <ele>776.36</ele>
        <time>2021-06-23T09:36:20Z</time>
      </trkpt>
      <trkpt lat="48.06883" lon="7.0753">
        <ele>775.95</ele>
        <time>2021-06-23T09:36:21Z</time>
      </trkpt>
      <trkpt lat="48.06889" lon="7.07522">
        <ele>774.97</ele>
        <time>2021-06-23T09:36:23Z</time>
      </trkpt>
      <trkpt lat="48.06894" lon="7.07509">
        <ele>773.98</ele>
        <time>2021-06-23T09:36:24Z</time>
      </trkpt>
      <trkpt lat="48.06896" lon="7.07488">
        <ele>776.98</ele>
        <time>2021-06-23T09:36:25Z</time>
      </trkpt>
      <trkpt lat="48.06896" lon="7.07488">
        <ele>776.98</ele>
        <time>2021-06-23T09:36:25Z</time>
      </trkpt>
      <trkpt lat="48.06891" lon="7.07468">
        <ele>778.36</ele>
        <time>2021-06-23T09:36:26Z</time>
      </trkpt>
      <trkpt lat="48.06877" lon="7.0744">
        <ele>781.73</ele>
        <time>2021-06-23T09:36:28Z</time>
      </trkpt>
      <trkpt lat="48.06835" lon="7.07346">
        <ele>783.65</ele>
        <time>2021-06-23T09:36:30Z</time>
      </trkpt>
      <trkpt lat="48.06819" lon="7.07317">
        <ele>786.64</ele>
        <time>2021-06-23T09:36:31Z</time>
      </trkpt>
      <trkpt lat="48.06764" lon="7.07255">
        <ele>785.2</ele>
        <time>2021-06-23T09:36:33Z</time>
      </trkpt>
      <trkpt lat="48.06756" lon="7.07232">
        <ele>784.96</ele>
        <time>2021-06-23T09:36:35Z</time>
      </trkpt>
      <trkpt lat="48.06746" lon="7.07192">
        <ele>785.49</ele>
        <time>2021-06-23T09:36:36Z</time>
      </trkpt>
      <trkpt lat="48.06734" lon="7.07085">
        <ele>795.62</ele>
        <time>2021-06-23T09:36:38Z</time>
      </trkpt>
      <trkpt lat="48.06736" lon="7.07044">
        <ele>799.07</ele>
        <time>2021-06-23T09:36:40Z</time>
      </trkpt>
      <trkpt lat="48.06735" lon="7.07031">
        <ele>800.07</ele>
        <time>2021-06-23T09:36:41Z</time>
      </trkpt>
      <trkpt lat="48.06727" lon="7.07007">
        <ele>801.84</ele>
        <time>2021-06-23T09:36:43Z</time>
      </trkpt>
      <trkpt lat="48.0672" lon="7.06997">
        <ele>802.85</ele>
        <time>2021-06-23T09:36:45Z</time>
      </trkpt>
      <trkpt lat="48.0672" lon="7.06997">
        <ele>802.85</ele>
        <time>2021-06-23T09:36:45Z</time>
      </trkpt>
      <trkpt lat="48.06705" lon="7.06991">
        <ele>803.14</ele>
        <time>2021-06-23T09:36:46Z</time>
      </trkpt>
      <trkpt lat="48.06688" lon="7.06999">
        <ele>802.46</ele>
        <time>2021-06-23T09:36:47Z</time>
      </trkpt>
      <trkpt lat="48.06677" lon="7.0701">
        <ele>802.13</ele>
        <time>2021-06-23T09:36:48Z</time>
      </trkpt>
      <trkpt lat="48.06643" lon="7.07055">
        <ele>797.92</ele>
        <time>2021-06-23T09:36:49Z</time>
      </trkpt>
      <trkpt lat="48.06628" lon="7.07065">
        <ele>797.98</ele>
        <time>2021-06-23T09:36:50Z</time>
      </trkpt>
      <trkpt lat="48.06611" lon="7.07066">
        <ele>799.07</ele>
        <time>2021-06-23T09:36:51Z</time>
      </trkpt>
      <trkpt lat="48.06611" lon="7.07066">
        <ele>799.07</ele>
        <time>2021-06-23T09:36:51Z</time>
      </trkpt>
      <trkpt lat="48.066" lon="7.07062">
        <ele>799.09</ele>
        <time>2021-06-23T09:36:53Z</time>
      </trkpt>
      <trkpt lat="48.06531" lon="7.06993">
        <ele>802.7</ele>
        <time>2021-06-23T09:36:56Z</time>
      </trkpt>
      <trkpt lat="48.0649" lon="7.0694">
        <ele>804.82</ele>
        <time>2021-06-23T09:36:58Z</time>
      </trkpt>
      <trkpt lat="48.06472" lon="7.06913">
        <ele>806.18</ele>
        <time>2021-06-23T09:37:00Z</time>
      </trkpt>
      <trkpt lat="48.06472" lon="7.06913">
        <ele>806.18</ele>
        <time>2021-06-23T09:37:00Z</time>
      </trkpt>
      <trkpt lat="48.06461" lon="7.06884">
        <ele>811.08</ele>
        <time>2021-06-23T09:37:02Z</time>
      </trkpt>
      <trkpt lat="48.06459" lon="7.06868">
        <ele>812.79</ele>
        <time>2021-06-23T09:37:05Z</time>
      </trkpt>
      <trkpt lat="48.06454" lon="7.06788">
        <ele>816.6</ele>
        <time>2021-06-23T09:37:07Z</time>
      </trkpt>
      <trkpt lat="48.06451" lon="7.06761">
        <ele>818.66</ele>
        <time>2021-06-23T09:37:09Z</time>
      </trkpt>
      <trkpt lat="48.06441" lon="7.06718">
        <ele>821.67</ele>
        <time>2021-06-23T09:37:12Z</time>
      </trkpt>
      <trkpt lat="48.06376" lon="7.06518">
        <ele>827.73</ele>
        <time>2021-06-23T09:37:14Z</time>
      </trkpt>
      <trkpt lat="48.0636" lon="7.06474">
        <ele>829.58</ele>
        <time>2021-06-23T09:37:17Z</time>
      </trkpt>
      <trkpt lat="48.06339" lon="7.0634">
        <ele>832.12</ele>
        <time>2021-06-23T09:37:19Z</time>
      </trkpt>
      <trkpt lat="48.06337" lon="7.06292">
        <ele>831.52</ele>
        <time>2021-06-23T09:37:21Z</time>
      </trkpt>
      <trkpt lat="48.06339" lon="7.06269">
        <ele>833.83</ele>
        <time>2021-06-23T09:37:24Z</time>
      </trkpt>
      <trkpt lat="48.06339" lon="7.06269">
        <ele>833.83</ele>
        <time>2021-06-23T09:37:24Z</time>
      </trkpt>
      <trkpt lat="48.06342" lon="7.06251">
        <ele>834.75</ele>
        <time>2021-06-23T09:37:25Z</time>
      </trkpt>
      <trkpt lat="48.06361" lon="7.06168">
        <ele>836.97</ele>
        <time>2021-06-23T09:37:27Z</time>
      </trkpt>
      <trkpt lat="48.06381" lon="7.06101">
        <ele>841.92</ele>
        <time>2021-06-23T09:37:29Z</time>
      </trkpt>
      <trkpt lat="48.06401" lon="7.06061">
        <ele>841.89</ele>
        <time>2021-06-23T09:37:30Z</time>
      </trkpt>
      <trkpt lat="48.06423" lon="7.06027">
        <ele>842.86</ele>
        <time>2021-06-23T09:37:32Z</time>
      </trkpt>
      <trkpt lat="48.06445" lon="7.06003">
        <ele>844.58</ele>
        <time>2021-06-23T09:37:34Z</time>
      </trkpt>
      <trkpt lat="48.06462" lon="7.0599">
        <ele>845.52</ele>
        <time>2021-06-23T09:37:35Z</time>
      </trkpt>
      <trkpt lat="48.06462" lon="7.0599">
        <ele>845.52</ele>
        <time>2021-06-23T09:37:35Z</time>
      </trkpt>
      <trkpt lat="48.06481" lon="7.05986">
        <ele>848.35</ele>
        <time>2021-06-23T09:37:37Z</time>
      </trkpt>
      <trkpt lat="48.06512" lon="7.05994">
        <ele>850.41</ele>
        <time>2021-06-23T09:37:39Z</time>
      </trkpt>
      <trkpt lat="48.06595" lon="7.06023">
        <ele>854.89</ele>
        <time>2021-06-23T09:37:40Z</time>
      </trkpt>
      <trkpt lat="48.06614" lon="7.06028">
        <ele>855.19</ele>
        <time>2021-06-23T09:37:42Z</time>
      </trkpt>
      <trkpt lat="48.06649" lon="7.06032">
        <ele>857.8</ele>
        <time>2021-06-23T09:37:44Z</time>
      </trkpt>
      <trkpt lat="48.06671" lon="7.06029">
        <ele>859.76</ele>
        <time>2021-06-23T09:37:46Z</time>
      </trkpt>
      <trkpt lat="48.06694" lon="7.06021">
        <ele>861.25</ele>
        <time>2021-06-23T09:37:47Z</time>
      </trkpt>
      <trkpt lat="48.0675" lon="7.05991">
        <ele>866.37</ele>
        <time>2021-06-23T09:37:49Z</time>
      </trkpt>
      <trkpt lat="48.06771" lon="7.05977">
        <ele>868.69</ele>
        <time>2021-06-23T09:37:51Z</time>
      </trkpt>
      <trkpt lat="48.06778" lon="7.0597">
        <ele>869.87</ele>
        <time>2021-06-23T09:37:52Z</time>
      </trkpt>
      <trkpt lat="48.06778" lon="7.0597">
        <ele>869.87</ele>
        <time>2021-06-23T09:37:52Z</time>
      </trkpt>
      <trkpt lat="48.06784" lon="7.05952">
        <ele>870.68</ele>
        <time>2021-06-23T09:37:53Z</time>
      </trkpt>
      <trkpt lat="48.06784" lon="7.0594">
        <ele>871.22</ele>
        <time>2021-06-23T09:37:54Z</time>
      </trkpt>
      <trkpt lat="48.06781" lon="7.05928">
        <ele>871.7</ele>
        <time>2021-06-23T09:37:56Z</time>
      </trkpt>
      <trkpt lat="48.06768" lon="7.05913">
        <ele>871.06</ele>
        <time>2021-06-23T09:37:57Z</time>
      </trkpt>
      <trkpt lat="48.06745" lon="7.05894">
        <ele>869.68</ele>
        <time>2021-06-23T09:37:58Z</time>
      </trkpt>
      <trkpt lat="48.06716" lon="7.0586">
        <ele>871.04</ele>
        <time>2021-06-23T09:37:59Z</time>
      </trkpt>
      <trkpt lat="48.06694" lon="7.0582">
        <ele>875.42</ele>
        <time>2021-06-23T09:38:00Z</time>
      </trkpt>
      <trkpt lat="48.06686" lon="7.05784">
        <ele>876.86</ele>
        <time>2021-06-23T09:38:01Z</time>
      </trkpt>
      <trkpt lat="48.06684" lon="7.05749">
        <ele>877.29</ele>
        <time>2021-06-23T09:38:02Z</time>
      </trkpt>
      <trkpt lat="48.06684" lon="7.05749">
        <ele>877.29</ele>
        <time>2021-06-23T09:38:02Z</time>
      </trkpt>
      <trkpt lat="48.0669" lon="7.05714">
        <ele>876.52</ele>
        <time>2021-06-23T09:38:05Z</time>
      </trkpt>
      <trkpt lat="48.06734" lon="7.05567">
        <ele>880.85</ele>
        <time>2021-06-23T09:38:07Z</time>
      </trkpt>
      <trkpt lat="48.06743" lon="7.05548">
        <ele>881.1</ele>
        <time>2021-06-23T09:38:10Z</time>
      </trkpt>
      <trkpt lat="48.06775" lon="7.0549">
        <ele>884.68</ele>
        <time>2021-06-23T09:38:13Z</time>
      </trkpt>
      <trkpt lat="48.06792" lon="7.0547">
        <ele>889.96</ele>
        <time>2021-06-23T09:38:16Z</time>
      </trkpt>
      <trkpt lat="48.06804" lon="7.05449">
        <ele>893.45</ele>
        <time>2021-06-23T09:38:18Z</time>
      </trkpt>
      <trkpt lat="48.06838" lon="7.05365">
        <ele>895.04</ele>
        <time>2021-06-23T09:38:21Z</time>
      </trkpt>
      <trkpt lat="48.06845" lon="7.05327">
        <ele>895.53</ele>
        <time>2021-06-23T09:38:24Z</time>
      </trkpt>
      <trkpt lat="48.06859" lon="7.05163">
        <ele>905.01</ele>
        <time>2021-06-23T09:38:26Z</time>
      </trkpt>
      <trkpt lat="48.06868" lon="7.05102">
        <ele>904.98</ele>
        <time>2021-06-23T09:38:29Z</time>
      </trkpt>
      <trkpt lat="48.06911" lon="7.04887">
        <ele>913.06</ele>
        <time>2021-06-23T09:38:32Z</time>
      </trkpt>
      <trkpt lat="48.06913" lon="7.04848">
        <ele>914.73</ele>
        <time>2021-06-23T09:38:34Z</time>
      </trkpt>
      <trkpt lat="48.06911" lon="7.04818">
        <ele>914.95</ele>
        <time>2021-06-23T09:38:37Z</time>
      </trkpt>
      <trkpt lat="48.06911" lon="7.04818">
        <ele>914.95</ele>
        <time>2021-06-23T09:38:37Z</time>
      </trkpt>
      <trkpt lat="48.06906" lon="7.04789">
        <ele>915</ele>
        <time>2021-06-23T09:38:38Z</time>
      </trkpt>
      <trkpt lat="48.06879" lon="7.04729">
        <ele>911.2</ele>
        <time>2021-06-23T09:38:40Z</time>
      </trkpt>
      <trkpt lat="48.06856" lon="7.04709">
        <ele>910.59</ele>
        <time>2021-06-23T09:38:42Z</time>
      </trkpt>
      <trkpt lat="48.06832" lon="7.04704">
        <ele>915.84</ele>
        <time>2021-06-23T09:38:43Z</time>
      </trkpt>
      <trkpt lat="48.06832" lon="7.04704">
        <ele>915.84</ele>
        <time>2021-06-23T09:38:43Z</time>
      </trkpt>
      <trkpt lat="48.06816" lon="7.04709">
        <ele>918.18</ele>
        <time>2021-06-23T09:38:45Z</time>
      </trkpt>
      <trkpt lat="48.06804" lon="7.04719">
        <ele>922.22</ele>
        <time>2021-06-23T09:38:47Z</time>
      </trkpt>
      <trkpt lat="48.06748" lon="7.04794">
        <ele>927.43</ele>
        <time>2021-06-23T09:38:48Z</time>
      </trkpt>
      <trkpt lat="48.06724" lon="7.04813">
        <ele>926.4</ele>
        <time>2021-06-23T09:38:50Z</time>
      </trkpt>
      <trkpt lat="48.06701" lon="7.0482">
        <ele>926.71</ele>
        <time>2021-06-23T09:38:52Z</time>
      </trkpt>
      <trkpt lat="48.06667" lon="7.04809">
        <ele>926.73</ele>
        <time>2021-06-23T09:38:53Z</time>
      </trkpt>
      <trkpt lat="48.06598" lon="7.04767">
        <ele>935.3</ele>
        <time>2021-06-23T09:38:55Z</time>
      </trkpt>
      <trkpt lat="48.06577" lon="7.04763">
        <ele>937.54</ele>
        <time>2021-06-23T09:38:57Z</time>
      </trkpt>
      <trkpt lat="48.06555" lon="7.04768">
        <ele>940.17</ele>
        <time>2021-06-23T09:38:59Z</time>
      </trkpt>
      <trkpt lat="48.06521" lon="7.04801">
        <ele>943.48</ele>
        <time>2021-06-23T09:39:00Z</time>
      </trkpt>
      <trkpt lat="48.06494" lon="7.04834">
        <ele>943.3</ele>
        <time>2021-06-23T09:39:02Z</time>
      </trkpt>
      <trkpt lat="48.06469" lon="7.04852">
        <ele>943.07</ele>
        <time>2021-06-23T09:39:04Z</time>
      </trkpt>
      <trkpt lat="48.06446" lon="7.04857">
        <ele>944.16</ele>
        <time>2021-06-23T09:39:05Z</time>
      </trkpt>
      <trkpt lat="48.06446" lon="7.04857">
        <ele>944.16</ele>
        <time>2021-06-23T09:39:05Z</time>
      </trkpt>
      <trkpt lat="48.06423" lon="7.0485">
        <ele>945.06</ele>
        <time>2021-06-23T09:39:07Z</time>
      </trkpt>
      <trkpt lat="48.06399" lon="7.04828">
        <ele>946.89</ele>
        <time>2021-06-23T09:39:09Z</time>
      </trkpt>
      <trkpt lat="48.06364" lon="7.0475">
        <ele>951.3</ele>
        <time>2021-06-23T09:39:11Z</time>
      </trkpt>
      <trkpt lat="48.06343" lon="7.0473">
        <ele>956.07</ele>
        <time>2021-06-23T09:39:13Z</time>
      </trkpt>
      <trkpt lat="48.06315" lon="7.04723">
        <ele>959.3</ele>
        <time>2021-06-23T09:39:15Z</time>
      </trkpt>
      <trkpt lat="48.06207" lon="7.0472">
        <ele>960.69</ele>
        <time>2021-06-23T09:39:17Z</time>
      </trkpt>
      <trkpt lat="48.06158" lon="7.04725">
        <ele>960.36</ele>
        <time>2021-06-23T09:39:18Z</time>
      </trkpt>
      <trkpt lat="48.06149" lon="7.0472">
        <ele>961.57</ele>
        <time>2021-06-23T09:39:20Z</time>
      </trkpt>
      <trkpt lat="48.06141" lon="7.04707">
        <ele>964.32</ele>
        <time>2021-06-23T09:39:22Z</time>
      </trkpt>
      <trkpt lat="48.06137" lon="7.04687">
        <ele>968.2</ele>
        <time>2021-06-23T09:39:24Z</time>
      </trkpt>
      <trkpt lat="48.06137" lon="7.04687">
        <ele>968.2</ele>
        <time>2021-06-23T09:39:24Z</time>
      </trkpt>
      <trkpt lat="48.0614" lon="7.04672">
        <ele>972.7</ele>
        <time>2021-06-23T09:39:25Z</time>
      </trkpt>
      <trkpt lat="48.06143" lon="7.04665">
        <ele>974.25</ele>
        <time>2021-06-23T09:39:27Z</time>
      </trkpt>
      <trkpt lat="48.06147" lon="7.04662">
        <ele>974.95</ele>
        <time>2021-06-23T09:39:28Z</time>
      </trkpt>
      <trkpt lat="48.06155" lon="7.04659">
        <ele>975.45</ele>
        <time>2021-06-23T09:39:29Z</time>
      </trkpt>
      <trkpt lat="48.06162" lon="7.0466">
        <ele>975.31</ele>
        <time>2021-06-23T09:39:31Z</time>
      </trkpt>
      <trkpt lat="48.06182" lon="7.04668">
        <ele>973.64</ele>
        <time>2021-06-23T09:39:32Z</time>
      </trkpt>
      <trkpt lat="48.06203" lon="7.04683">
        <ele>969.97</ele>
        <time>2021-06-23T09:39:33Z</time>
      </trkpt>
      <trkpt lat="48.06217" lon="7.04689">
        <ele>968.49</ele>
        <time>2021-06-23T09:39:35Z</time>
      </trkpt>
      <trkpt lat="48.0624" lon="7.04689">
        <ele>968.19</ele>
        <time>2021-06-23T09:39:36Z</time>
      </trkpt>
      <trkpt lat="48.06263" lon="7.04686">
        <ele>969.11</ele>
        <time>2021-06-23T09:39:37Z</time>
      </trkpt>
      <trkpt lat="48.06297" lon="7.04675">
        <ele>973.18</ele>
        <time>2021-06-23T09:39:39Z</time>
      </trkpt>
      <trkpt lat="48.06335" lon="7.04667">
        <ele>974.97</ele>
        <time>2021-06-23T09:39:40Z</time>
      </trkpt>
      <trkpt lat="48.0638" lon="7.04666">
        <ele>976.42</ele>
        <time>2021-06-23T09:39:41Z</time>
      </trkpt>
      <trkpt lat="48.06441" lon="7.0468">
        <ele>976.92</ele>
        <time>2021-06-23T09:39:43Z</time>
      </trkpt>
      <trkpt lat="48.06467" lon="7.04678">
        <ele>977.79</ele>
        <time>2021-06-23T09:39:44Z</time>
      </trkpt>
      <trkpt lat="48.06483" lon="7.04669">
        <ele>978.68</ele>
        <time>2021-06-23T09:39:45Z</time>
      </trkpt>
      <trkpt lat="48.06501" lon="7.04653">
        <ele>980.18</ele>
        <time>2021-06-23T09:39:47Z</time>
      </trkpt>
      <trkpt lat="48.06569" lon="7.04577">
        <ele>984.11</ele>
        <time>2021-06-23T09:39:48Z</time>
      </trkpt>
      <trkpt lat="48.06569" lon="7.04577">
        <ele>984.11</ele>
        <time>2021-06-23T09:39:48Z</time>
      </trkpt>
      <trkpt lat="48.06641" lon="7.04465">
        <ele>983.92</ele>
        <time>2021-06-23T09:39:50Z</time>
      </trkpt>
      <trkpt lat="48.06662" lon="7.04425">
        <ele>987.19</ele>
        <time>2021-06-23T09:39:52Z</time>
      </trkpt>
      <trkpt lat="48.06681" lon="7.04372">
        <ele>989.33</ele>
        <time>2021-06-23T09:39:55Z</time>
      </trkpt>
      <trkpt lat="48.06697" lon="7.04306">
        <ele>994.05</ele>
        <time>2021-06-23T09:39:57Z</time>
      </trkpt>
      <trkpt lat="48.06703" lon="7.04285">
        <ele>994.75</ele>
        <time>2021-06-23T09:39:59Z</time>
      </trkpt>
      <trkpt lat="48.06717" lon="7.04253">
        <ele>994.76</ele>
        <time>2021-06-23T09:40:01Z</time>
      </trkpt>
      <trkpt lat="48.06727" lon="7.04235">
        <ele>996.85</ele>
        <time>2021-06-23T09:40:03Z</time>
      </trkpt>
      <trkpt lat="48.06749" lon="7.04204">
        <ele>999.43</ele>
        <time>2021-06-23T09:40:05Z</time>
      </trkpt>
      <trkpt lat="48.0676" lon="7.04186">
        <ele>999.79</ele>
        <time>2021-06-23T09:40:08Z</time>
      </trkpt>
      <trkpt lat="48.06768" lon="7.04169">
        <ele>1000.7</ele>
        <time>2021-06-23T09:40:10Z</time>
      </trkpt>
      <trkpt lat="48.06829" lon="7.03999">
        <ele>1012.6</ele>
        <time>2021-06-23T09:40:12Z</time>
      </trkpt>
      <trkpt lat="48.06863" lon="7.03893">
        <ele>1015.47</ele>
        <time>2021-06-23T09:40:14Z</time>
      </trkpt>
      <trkpt lat="48.06868" lon="7.03868">
        <ele>1014.46</ele>
        <time>2021-06-23T09:40:16Z</time>
      </trkpt>
      <trkpt lat="48.06864" lon="7.03834">
        <ele>1012.51</ele>
        <time>2021-06-23T09:40:18Z</time>
      </trkpt>
      <trkpt lat="48.06864" lon="7.03834">
        <ele>1012.51</ele>
        <time>2021-06-23T09:40:18Z</time>
      </trkpt>
      <trkpt lat="48.0685" lon="7.03809">
        <ele>1011.51</ele>
        <time>2021-06-23T09:40:20Z</time>
      </trkpt>
      <trkpt lat="48.06822" lon="7.03796">
        <ele>1012.49</ele>
        <time>2021-06-23T09:40:22Z</time>
      </trkpt>
      <trkpt lat="48.06797" lon="7.03815">
        <ele>1016.03</ele>
        <time>2021-06-23T09:40:23Z</time>
      </trkpt>
      <trkpt lat="48.06781" lon="7.03857">
        <ele>1018.65</ele>
        <time>2021-06-23T09:40:25Z</time>
      </trkpt>
      <trkpt lat="48.06771" lon="7.03896">
        <ele>1019.55</ele>
        <time>2021-06-23T09:40:26Z</time>
      </trkpt>
      <trkpt lat="48.06764" lon="7.03968">
        <ele>1016.27</ele>
        <time>2021-06-23T09:40:28Z</time>
      </trkpt>
      <trkpt lat="48.06756" lon="7.04006">
        <ele>1014.34</ele>
        <time>2021-06-23T09:40:29Z</time>
      </trkpt>
      <trkpt lat="48.06676" lon="7.04201">
        <ele>1020.15</ele>
        <time>2021-06-23T09:40:31Z</time>
      </trkpt>
      <trkpt lat="48.06665" lon="7.0422">
        <ele>1021.66</ele>
        <time>2021-06-23T09:40:33Z</time>
      </trkpt>
      <trkpt lat="48.06657" lon="7.04226">
        <ele>1022.23</ele>
        <time>2021-06-23T09:40:34Z</time>
      </trkpt>
      <trkpt lat="48.06631" lon="7.04239">
        <ele>1026.7</ele>
        <time>2021-06-23T09:40:36Z</time>
      </trkpt>
      <trkpt lat="48.06622" lon="7.04247">
        <ele>1028.09</ele>
        <time>2021-06-23T09:40:37Z</time>
      </trkpt>
      <trkpt lat="48.06613" lon="7.04257">
        <ele>1029.06</ele>
        <time>2021-06-23T09:40:39Z</time>
      </trkpt>
      <trkpt lat="48.06606" lon="7.04268">
        <ele>1030.09</ele>
        <time>2021-06-23T09:40:41Z</time>
      </trkpt>
      <trkpt lat="48.06579" lon="7.04329">
        <ele>1031.5</ele>
        <time>2021-06-23T09:40:42Z</time>
      </trkpt>
      <trkpt lat="48.06568" lon="7.04349">
        <ele>1031.56</ele>
        <time>2021-06-23T09:40:44Z</time>
      </trkpt>
      <trkpt lat="48.06548" lon="7.04371">
        <ele>1033.28</ele>
        <time>2021-06-23T09:40:45Z</time>
      </trkpt>
      <trkpt lat="48.06535" lon="7.04379">
        <ele>1035.06</ele>
        <time>2021-06-23T09:40:47Z</time>
      </trkpt>
      <trkpt lat="48.06535" lon="7.04379">
        <ele>1035.06</ele>
        <time>2021-06-23T09:40:47Z</time>
      </trkpt>
      <trkpt lat="48.06516" lon="7.04382">
        <ele>1035.79</ele>
        <time>2021-06-23T09:40:49Z</time>
      </trkpt>
      <trkpt lat="48.06497" lon="7.04381">
        <ele>1037.49</ele>
        <time>2021-06-23T09:40:50Z</time>
      </trkpt>
      <trkpt lat="48.06466" lon="7.04366">
        <ele>1043.65</ele>
        <time>2021-06-23T09:40:52Z</time>
      </trkpt>
      <trkpt lat="48.06449" lon="7.04359">
        <ele>1045.98</ele>
        <time>2021-06-23T09:40:53Z</time>
      </trkpt>
      <trkpt lat="48.0643" lon="7.04357">
        <ele>1047.46</ele>
        <time>2021-06-23T09:40:55Z</time>
      </trkpt>
      <trkpt lat="48.06341" lon="7.04363">
        <ele>1050.4</ele>
        <time>2021-06-23T09:40:56Z</time>
      </trkpt>
      <trkpt lat="48.06305" lon="7.04363">
        <ele>1050.73</ele>
        <time>2021-06-23T09:40:58Z</time>
      </trkpt>
      <trkpt lat="48.06286" lon="7.0436">
        <ele>1051.86</ele>
        <time>2021-06-23T09:41:00Z</time>
      </trkpt>
      <trkpt lat="48.06262" lon="7.04355">
        <ele>1054.21</ele>
        <time>2021-06-23T09:41:01Z</time>
      </trkpt>
      <trkpt lat="48.06193" lon="7.04329">
        <ele>1058.76</ele>
        <time>2021-06-23T09:41:03Z</time>
      </trkpt>
      <trkpt lat="48.06163" lon="7.04323">
        <ele>1059.95</ele>
        <time>2021-06-23T09:41:04Z</time>
      </trkpt>
      <trkpt lat="48.06118" lon="7.0432">
        <ele>1058.91</ele>
        <time>2021-06-23T09:41:06Z</time>
      </trkpt>
      <trkpt lat="48.06101" lon="7.04315">
        <ele>1057.23</ele>
        <time>2021-06-23T09:41:08Z</time>
      </trkpt>
      <trkpt lat="48.06088" lon="7.04304">
        <ele>1057.67</ele>
        <time>2021-06-23T09:41:09Z</time>
      </trkpt>
      <trkpt lat="48.06082" lon="7.04296">
        <ele>1057.94</ele>
        <time>2021-06-23T09:41:11Z</time>
      </trkpt>
      <trkpt lat="48.06082" lon="7.04296">
        <ele>1057.94</ele>
        <time>2021-06-23T09:41:11Z</time>
      </trkpt>
      <trkpt lat="48.06077" lon="7.04285">
        <ele>1059.19</ele>
        <time>2021-06-23T09:41:12Z</time>
      </trkpt>
      <trkpt lat="48.06045" lon="7.04172">
        <ele>1056</ele>
        <time>2021-06-23T09:41:13Z</time>
      </trkpt>
      <trkpt lat="48.06045" lon="7.04161">
        <ele>1054.92</ele>
        <time>2021-06-23T09:41:15Z</time>
      </trkpt>
      <trkpt lat="48.06047" lon="7.04148">
        <ele>1054.6</ele>
        <time>2021-06-23T09:41:16Z</time>
      </trkpt>
      <trkpt lat="48.06047" lon="7.04148">
        <ele>1054.6</ele>
        <time>2021-06-23T09:41:16Z</time>
      </trkpt>
      <trkpt lat="48.06052" lon="7.04138">
        <ele>1055.05</ele>
        <time>2021-06-23T09:41:18Z</time>
      </trkpt>
      <trkpt lat="48.06086" lon="7.04115">
        <ele>1065.88</ele>
        <time>2021-06-23T09:41:20Z</time>
      </trkpt>
      <trkpt lat="48.06097" lon="7.04105">
        <ele>1067.17</ele>
        <time>2021-06-23T09:41:22Z</time>
      </trkpt>
      <trkpt lat="48.06108" lon="7.04087">
        <ele>1067.72</ele>
        <time>2021-06-23T09:41:24Z</time>
      </trkpt>
      <trkpt lat="48.0615" lon="7.04002">
        <ele>1073.15</ele>
        <time>2021-06-23T09:41:26Z</time>
      </trkpt>
      <trkpt lat="48.06167" lon="7.03973">
        <ele>1074.36</ele>
        <time>2021-06-23T09:41:27Z</time>
      </trkpt>
      <trkpt lat="48.06231" lon="7.03898">
        <ele>1083.09</ele>
        <time>2021-06-23T09:41:29Z</time>
      </trkpt>
      <trkpt lat="48.06283" lon="7.0382">
        <ele>1087.96</ele>
        <time>2021-06-23T09:41:31Z</time>
      </trkpt>
      <trkpt lat="48.06304" lon="7.03735">
        <ele>1082.4</ele>
        <time>2021-06-23T09:41:33Z</time>
      </trkpt>
      <trkpt lat="48.06307" lon="7.03713">
        <ele>1081.34</ele>
        <time>2021-06-23T09:41:35Z</time>
      </trkpt>
      <trkpt lat="48.06308" lon="7.03686">
        <ele>1078.65</ele>
        <time>2021-06-23T09:41:37Z</time>
      </trkpt>
      <trkpt lat="48.06314" lon="7.03665">
        <ele>1079.53</ele>
        <time>2021-06-23T09:41:39Z</time>
      </trkpt>
      <trkpt lat="48.06363" lon="7.03582">
        <ele>1094.68</ele>
        <time>2021-06-23T09:41:40Z</time>
      </trkpt>
      <trkpt lat="48.0637" lon="7.03566">
        <ele>1096.01</ele>
        <time>2021-06-23T09:41:42Z</time>
      </trkpt>
      <trkpt lat="48.06378" lon="7.03538">
        <ele>1098.87</ele>
        <time>2021-06-23T09:41:44Z</time>
      </trkpt>
      <trkpt lat="48.06378" lon="7.03538">
        <ele>1098.87</ele>
        <time>2021-06-23T09:41:44Z</time>
      </trkpt>
      <trkpt lat="48.06379" lon="7.03512">
        <ele>1099.41</ele>
        <time>2021-06-23T09:41:46Z</time>
      </trkpt>
      <trkpt lat="48.06377" lon="7.03462">
        <ele>1102.54</ele>
        <time>2021-06-23T09:41:47Z</time>
      </trkpt>
      <trkpt lat="48.06373" lon="7.03447">
        <ele>1101.54</ele>
        <time>2021-06-23T09:41:48Z</time>
      </trkpt>
      <trkpt lat="48.06359" lon="7.03417">
        <ele>1096.27</ele>
        <time>2021-06-23T09:41:50Z</time>
      </trkpt>
      <trkpt lat="48.06354" lon="7.03404">
        <ele>1093.2</ele>
        <time>2021-06-23T09:41:51Z</time>
      </trkpt>
      <trkpt lat="48.06353" lon="7.03386">
        <ele>1093.42</ele>
        <time>2021-06-23T09:41:53Z</time>
      </trkpt>
      <trkpt lat="48.06364" lon="7.03264">
        <ele>1100.3</ele>
        <time>2021-06-23T09:41:54Z</time>
      </trkpt>
      <trkpt lat="48.06373" lon="7.03217">
        <ele>1105.44</ele>
        <time>2021-06-23T09:41:56Z</time>
      </trkpt>
      <trkpt lat="48.06389" lon="7.03162">
        <ele>1120.28</ele>
        <time>2021-06-23T09:41:57Z</time>
      </trkpt>
      <trkpt lat="48.06391" lon="7.03148">
        <ele>1124.86</ele>
        <time>2021-06-23T09:41:59Z</time>
      </trkpt>
      <trkpt lat="48.06389" lon="7.03124">
        <ele>1124.59</ele>
        <time>2021-06-23T09:42:00Z</time>
      </trkpt>
      <trkpt lat="48.06372" lon="7.03034">
        <ele>1102.67</ele>
        <time>2021-06-23T09:42:01Z</time>
      </trkpt>
      <trkpt lat="48.06373" lon="7.03017">
        <ele>1099.51</ele>
        <time>2021-06-23T09:42:03Z</time>
      </trkpt>
      <trkpt lat="48.0638" lon="7.02999">
        <ele>1099.18</ele>
        <time>2021-06-23T09:42:04Z</time>
      </trkpt>
      <trkpt lat="48.06392" lon="7.02973">
        <ele>1103.88</ele>
        <time>2021-06-23T09:42:06Z</time>
      </trkpt>
      <trkpt lat="48.06399" lon="7.02954">
        <ele>1110.98</ele>
        <time>2021-06-23T09:42:07Z</time>
      </trkpt>
      <trkpt lat="48.0642" lon="7.02843">
        <ele>1132.3</ele>
        <time>2021-06-23T09:42:09Z</time>
      </trkpt>
      <trkpt lat="48.06423" lon="7.02826">
        <ele>1133.41</ele>
        <time>2021-06-23T09:42:10Z</time>
      </trkpt>
      <trkpt lat="48.06423" lon="7.02807">
        <ele>1132.03</ele>
        <time>2021-06-23T09:42:12Z</time>
      </trkpt>
      <trkpt lat="48.06411" lon="7.02646">
        <ele>1138.16</ele>
        <time>2021-06-23T09:42:13Z</time>
      </trkpt>
      <trkpt lat="48.06409" lon="7.02632">
        <ele>1139.09</ele>
        <time>2021-06-23T09:42:14Z</time>
      </trkpt>
      <trkpt lat="48.06399" lon="7.02597">
        <ele>1137.56</ele>
        <time>2021-06-23T09:42:16Z</time>
      </trkpt>
      <trkpt lat="48.06392" lon="7.0254">
        <ele>1139.66</ele>
        <time>2021-06-23T09:42:17Z</time>
      </trkpt>
      <trkpt lat="48.0637" lon="7.02466">
        <ele>1139.92</ele>
        <time>2021-06-23T09:42:19Z</time>
      </trkpt>
      <trkpt lat="48.06367" lon="7.02448">
        <ele>1142.46</ele>
        <time>2021-06-23T09:42:20Z</time>
      </trkpt>
      <trkpt lat="48.06367" lon="7.02431">
        <ele>1144.51</ele>
        <time>2021-06-23T09:42:22Z</time>
      </trkpt>
      <trkpt lat="48.06371" lon="7.02413">
        <ele>1146.22</ele>
        <time>2021-06-23T09:42:23Z</time>
      </trkpt>
      <trkpt lat="48.06377" lon="7.02397">
        <ele>1146.56</ele>
        <time>2021-06-23T09:42:25Z</time>
      </trkpt>
      <trkpt lat="48.06408" lon="7.02343">
        <ele>1145.41</ele>
        <time>2021-06-23T09:42:26Z</time>
      </trkpt>
      <trkpt lat="48.06413" lon="7.02329">
        <ele>1144.97</ele>
        <time>2021-06-23T09:42:27Z</time>
      </trkpt>
      <trkpt lat="48.06419" lon="7.02296">
        <ele>1142.53</ele>
        <time>2021-06-23T09:42:29Z</time>
      </trkpt>
      <trkpt lat="48.06417" lon="7.02281">
        <ele>1141.92</ele>
        <time>2021-06-23T09:42:30Z</time>
      </trkpt>
      <trkpt lat="48.06417" lon="7.02281">
        <ele>1141.92</ele>
        <time>2021-06-23T09:42:30Z</time>
      </trkpt>
      <trkpt lat="48.06415" lon="7.02269">
        <ele>1140.39</ele>
        <time>2021-06-23T09:42:32Z</time>
      </trkpt>
      <trkpt lat="48.0641" lon="7.02258">
        <ele>1139.74</ele>
        <time>2021-06-23T09:42:33Z</time>
      </trkpt>
      <trkpt lat="48.06371" lon="7.02215">
        <ele>1137.82</ele>
        <time>2021-06-23T09:42:34Z</time>
      </trkpt>
      <trkpt lat="48.06361" lon="7.02202">
        <ele>1138</ele>
        <time>2021-06-23T09:42:36Z</time>
      </trkpt>
      <trkpt lat="48.06318" lon="7.02134">
        <ele>1135.73</ele>
        <time>2021-06-23T09:42:37Z</time>
      </trkpt>
      <trkpt lat="48.06298" lon="7.02108">
        <ele>1135.4</ele>
        <time>2021-06-23T09:42:39Z</time>
      </trkpt>
      <trkpt lat="48.06289" lon="7.02098">
        <ele>1135.76</ele>
        <time>2021-06-23T09:42:40Z</time>
      </trkpt>
      <trkpt lat="48.06282" lon="7.02094">
        <ele>1136.1</ele>
        <time>2021-06-23T09:42:41Z</time>
      </trkpt>
      <trkpt lat="48.06252" lon="7.0209">
        <ele>1138.07</ele>
        <time>2021-06-23T09:42:43Z</time>
      </trkpt>
      <trkpt lat="48.06243" lon="7.0208">
        <ele>1139.33</ele>
        <time>2021-06-23T09:42:44Z</time>
      </trkpt>
      <trkpt lat="48.0624" lon="7.02071">
        <ele>1140.27</ele>
        <time>2021-06-23T09:42:46Z</time>
      </trkpt>
      <trkpt lat="48.0624" lon="7.02071">
        <ele>1140.27</ele>
        <time>2021-06-23T09:42:46Z</time>
      </trkpt>
      <trkpt lat="48.06239" lon="7.02055">
        <ele>1140.49</ele>
        <time>2021-06-23T09:42:48Z</time>
      </trkpt>
      <trkpt lat="48.0624" lon="7.02048">
        <ele>1140.6</ele>
        <time>2021-06-23T09:42:50Z</time>
      </trkpt>
      <trkpt lat="48.06251" lon="7.02028">
        <ele>1138.88</ele>
        <time>2021-06-23T09:42:52Z</time>
      </trkpt>
      <trkpt lat="48.06265" lon="7.02009">
        <ele>1137.58</ele>
        <time>2021-06-23T09:42:54Z</time>
      </trkpt>
      <trkpt lat="48.06272" lon="7.01993">
        <ele>1137.51</ele>
        <time>2021-06-23T09:42:56Z</time>
      </trkpt>
      <trkpt lat="48.06278" lon="7.01975">
        <ele>1137.88</ele>
        <time>2021-06-23T09:42:58Z</time>
      </trkpt>
      <trkpt lat="48.06283" lon="7.01926">
        <ele>1138.39</ele>
        <time>2021-06-23T09:43:00Z</time>
      </trkpt>
      <trkpt lat="48.06286" lon="7.01852">
        <ele>1138.62</ele>
        <time>2021-06-23T09:43:02Z</time>
      </trkpt>
      <trkpt lat="48.06284" lon="7.01814">
        <ele>1137.14</ele>
        <time>2021-06-23T09:43:04Z</time>
      </trkpt>
      <trkpt lat="48.06281" lon="7.01781">
        <ele>1136.62</ele>
        <time>2021-06-23T09:43:06Z</time>
      </trkpt>
      <trkpt lat="48.06274" lon="7.01745">
        <ele>1138.7</ele>
        <time>2021-06-23T09:43:08Z</time>
      </trkpt>
      <trkpt lat="48.06243" lon="7.01613">
        <ele>1134.06</ele>
        <time>2021-06-23T09:43:10Z</time>
      </trkpt>
      <trkpt lat="48.06231" lon="7.01571">
        <ele>1133.83</ele>
        <time>2021-06-23T09:43:12Z</time>
      </trkpt>
      <trkpt lat="48.06194" lon="7.01482">
        <ele>1135.36</ele>
        <time>2021-06-23T09:43:14Z</time>
      </trkpt>
      <trkpt lat="48.06171" lon="7.01441">
        <ele>1132.84</ele>
        <time>2021-06-23T09:43:16Z</time>
      </trkpt>
      <trkpt lat="48.06171" lon="7.01441">
        <ele>1132.84</ele>
        <time>2021-06-23T09:43:16Z</time>
      </trkpt>
      <trkpt lat="48.06153" lon="7.01417">
        <ele>1131.7</ele>
        <time>2021-06-23T09:43:19Z</time>
      </trkpt>
      <trkpt lat="48.06078" lon="7.01348">
        <ele>1133.16</ele>
        <time>2021-06-23T09:43:22Z</time>
      </trkpt>
      <trkpt lat="48.06011" lon="7.01274">
        <ele>1131.76</ele>
        <time>2021-06-23T09:43:24Z</time>
      </trkpt>
      <trkpt lat="48.05986" lon="7.01249">
        <ele>1129.84</ele>
        <time>2021-06-23T09:43:27Z</time>
      </trkpt>
      <trkpt lat="48.05933" lon="7.01204">
        <ele>1129</ele>
        <time>2021-06-23T09:43:30Z</time>
      </trkpt>
      <trkpt lat="48.05914" lon="7.01191">
        <ele>1128.44</ele>
        <time>2021-06-23T09:43:33Z</time>
      </trkpt>
      <trkpt lat="48.05819" lon="7.01141">
        <ele>1123.12</ele>
        <time>2021-06-23T09:43:36Z</time>
      </trkpt>
      <trkpt lat="48.05802" lon="7.01133">
        <ele>1123.15</ele>
        <time>2021-06-23T09:43:38Z</time>
      </trkpt>
      <trkpt lat="48.05787" lon="7.01129">
        <ele>1123.76</ele>
        <time>2021-06-23T09:43:41Z</time>
      </trkpt>
      <trkpt lat="48.05759" lon="7.01128">
        <ele>1126.31</ele>
        <time>2021-06-23T09:43:44Z</time>
      </trkpt>
      <trkpt lat="48.05747" lon="7.01125">
        <ele>1127.33</ele>
        <time>2021-06-23T09:43:47Z</time>
      </trkpt>
      <trkpt lat="48.05729" lon="7.01109">
        <ele>1131.52</ele>
        <time>2021-06-23T09:43:49Z</time>
      </trkpt>
      <trkpt lat="48.05729" lon="7.01109">
        <ele>1131.52</ele>
        <time>2021-06-23T09:43:49Z</time>
      </trkpt>
      <trkpt lat="48.05718" lon="7.01089">
        <ele>1132.01</ele>
        <time>2021-06-23T09:43:51Z</time>
      </trkpt>
      <trkpt lat="48.05714" lon="7.01073">
        <ele>1131.68</ele>
        <time>2021-06-23T09:43:53Z</time>
      </trkpt>
      <trkpt lat="48.05712" lon="7.01054">
        <ele>1129.76</ele>
        <time>2021-06-23T09:43:55Z</time>
      </trkpt>
      <trkpt lat="48.05711" lon="7.01001">
        <ele>1123.5</ele>
        <time>2021-06-23T09:43:57Z</time>
      </trkpt>
      <trkpt lat="48.05702" lon="7.00941">
        <ele>1123.53</ele>
        <time>2021-06-23T09:43:59Z</time>
      </trkpt>
      <trkpt lat="48.05683" lon="7.00844">
        <ele>1118.73</ele>
        <time>2021-06-23T09:44:01Z</time>
      </trkpt>
      <trkpt lat="48.05675" lon="7.00816">
        <ele>1118.46</ele>
        <time>2021-06-23T09:44:03Z</time>
      </trkpt>
      <trkpt lat="48.05656" lon="7.00774">
        <ele>1118.13</ele>
        <time>2021-06-23T09:44:05Z</time>
      </trkpt>
      <trkpt lat="48.05656" lon="7.00774">
        <ele>1118.13</ele>
        <time>2021-06-23T09:44:05Z</time>
      </trkpt>
      <trkpt lat="48.05536" lon="7.00613">
        <ele>1122.61</ele>
        <time>2021-06-23T09:44:09Z</time>
      </trkpt>
      <trkpt lat="48.05491" lon="7.00548">
        <ele>1116.01</ele>
        <time>2021-06-23T09:44:12Z</time>
      </trkpt>
      <trkpt lat="48.05426" lon="7.00439">
        <ele>1109.46</ele>
        <time>2021-06-23T09:44:16Z</time>
      </trkpt>
      <trkpt lat="48.05386" lon="7.00365">
        <ele>1111</ele>
        <time>2021-06-23T09:44:19Z</time>
      </trkpt>
      <trkpt lat="48.05338" lon="7.00286">
        <ele>1115.42</ele>
        <time>2021-06-23T09:44:23Z</time>
      </trkpt>
      <trkpt lat="48.05323" lon="7.00269">
        <ele>1114.58</ele>
        <time>2021-06-23T09:44:27Z</time>
      </trkpt>
      <trkpt lat="48.0528" lon="7.00227">
        <ele>1111.84</ele>
        <time>2021-06-23T09:44:30Z</time>
      </trkpt>
      <trkpt lat="48.05243" lon="7.00179">
        <ele>1109.53</ele>
        <time>2021-06-23T09:44:34Z</time>
      </trkpt>
      <trkpt lat="48.05228" lon="7.00153">
        <ele>1106.36</ele>
        <time>2021-06-23T09:44:37Z</time>
      </trkpt>
      <trkpt lat="48.05218" lon="7.00126">
        <ele>1104.31</ele>
        <time>2021-06-23T09:44:41Z</time>
      </trkpt>
      <trkpt lat="48.05214" lon="7.00097">
        <ele>1103.25</ele>
        <time>2021-06-23T09:44:44Z</time>
      </trkpt>
      <trkpt lat="48.05214" lon="7.0008">
        <ele>1102.75</ele>
        <time>2021-06-23T09:44:48Z</time>
      </trkpt>
      <trkpt lat="48.05214" lon="7.0008">
        <ele>1102.75</ele>
        <time>2021-06-23T09:44:48Z</time>
      </trkpt>
      <trkpt lat="48.05219" lon="7.00046">
        <ele>1098.19</ele>
        <time>2021-06-23T09:44:50Z</time>
      </trkpt>
      <trkpt lat="48.05223" lon="7.00031">
        <ele>1097.13</ele>
        <time>2021-06-23T09:44:52Z</time>
      </trkpt>
      <trkpt lat="48.05235" lon="7.00005">
        <ele>1096.55</ele>
        <time>2021-06-23T09:44:54Z</time>
      </trkpt>
      <trkpt lat="48.05278" lon="6.99934">
        <ele>1097.91</ele>
        <time>2021-06-23T09:44:56Z</time>
      </trkpt>
      <trkpt lat="48.05294" lon="6.99913">
        <ele>1102.04</ele>
        <time>2021-06-23T09:44:57Z</time>
      </trkpt>
      <trkpt lat="48.05299" lon="6.99904">
        <ele>1102.21</ele>
        <time>2021-06-23T09:44:59Z</time>
      </trkpt>
      <trkpt lat="48.05323" lon="6.99837">
        <ele>1091.44</ele>
        <time>2021-06-23T09:45:01Z</time>
      </trkpt>
      <trkpt lat="48.05344" lon="6.99808">
        <ele>1088.58</ele>
        <time>2021-06-23T09:45:03Z</time>
      </trkpt>
      <trkpt lat="48.05344" lon="6.99808">
        <ele>1088.58</ele>
        <time>2021-06-23T09:45:03Z</time>
      </trkpt>
      <trkpt lat="48.05376" lon="6.99778">
        <ele>1087.23</ele>
        <time>2021-06-23T09:45:05Z</time>
      </trkpt>
      <trkpt lat="48.05398" lon="6.99772">
        <ele>1090.45</ele>
        <time>2021-06-23T09:45:06Z</time>
      </trkpt>
      <trkpt lat="48.05448" lon="6.99775">
        <ele>1098.17</ele>
        <time>2021-06-23T09:45:08Z</time>
      </trkpt>
      <trkpt lat="48.0546" lon="6.99769">
        <ele>1097.88</ele>
        <time>2021-06-23T09:45:10Z</time>
      </trkpt>
      <trkpt lat="48.05471" lon="6.99756">
        <ele>1094.4</ele>
        <time>2021-06-23T09:45:12Z</time>
      </trkpt>
      <trkpt lat="48.05489" lon="6.99725">
        <ele>1088.68</ele>
        <time>2021-06-23T09:45:13Z</time>
      </trkpt>
      <trkpt lat="48.05503" lon="6.99707">
        <ele>1086.09</ele>
        <time>2021-06-23T09:45:15Z</time>
      </trkpt>
      <trkpt lat="48.05528" lon="6.99686">
        <ele>1082.92</ele>
        <time>2021-06-23T09:45:17Z</time>
      </trkpt>
      <trkpt lat="48.05561" lon="6.99666">
        <ele>1079.75</ele>
        <time>2021-06-23T09:45:18Z</time>
      </trkpt>
      <trkpt lat="48.05582" lon="6.99661">
        <ele>1081.36</ele>
        <time>2021-06-23T09:45:20Z</time>
      </trkpt>
      <trkpt lat="48.05615" lon="6.99677">
        <ele>1092.52</ele>
        <time>2021-06-23T09:45:22Z</time>
      </trkpt>
      <trkpt lat="48.05627" lon="6.99674">
        <ele>1094.3</ele>
        <time>2021-06-23T09:45:23Z</time>
      </trkpt>
      <trkpt lat="48.05631" lon="6.9967">
        <ele>1094</ele>
        <time>2021-06-23T09:45:25Z</time>
      </trkpt>
      <trkpt lat="48.05638" lon="6.99659">
        <ele>1091.83</ele>
        <time>2021-06-23T09:45:27Z</time>
      </trkpt>
      <trkpt lat="48.0568" lon="6.99549">
        <ele>1070.88</ele>
        <time>2021-06-23T09:45:28Z</time>
      </trkpt>
      <trkpt lat="48.05694" lon="6.99531">
        <ele>1070.94</ele>
        <time>2021-06-23T09:45:30Z</time>
      </trkpt>
      <trkpt lat="48.05713" lon="6.9951">
        <ele>1072.25</ele>
        <time>2021-06-23T09:45:32Z</time>
      </trkpt>
      <trkpt lat="48.05734" lon="6.99492">
        <ele>1073.98</ele>
        <time>2021-06-23T09:45:33Z</time>
      </trkpt>
      <trkpt lat="48.05753" lon="6.99479">
        <ele>1073.78</ele>
        <time>2021-06-23T09:45:35Z</time>
      </trkpt>
      <trkpt lat="48.05765" lon="6.99475">
        <ele>1072.01</ele>
        <time>2021-06-23T09:45:37Z</time>
      </trkpt>
      <trkpt lat="48.05777" lon="6.99471">
        <ele>1070.42</ele>
        <time>2021-06-23T09:45:38Z</time>
      </trkpt>
      <trkpt lat="48.05789" lon="6.99471">
        <ele>1070.9</ele>
        <time>2021-06-23T09:45:40Z</time>
      </trkpt>
      <trkpt lat="48.05825" lon="6.99481">
        <ele>1078.48</ele>
        <time>2021-06-23T09:45:42Z</time>
      </trkpt>
      <trkpt lat="48.05841" lon="6.99474">
        <ele>1077.16</ele>
        <time>2021-06-23T09:45:44Z</time>
      </trkpt>
      <trkpt lat="48.05852" lon="6.99461">
        <ele>1073.51</ele>
        <time>2021-06-23T09:45:45Z</time>
      </trkpt>
      <trkpt lat="48.05881" lon="6.99408">
        <ele>1059.09</ele>
        <time>2021-06-23T09:45:47Z</time>
      </trkpt>
      <trkpt lat="48.05901" lon="6.99365">
        <ele>1052.18</ele>
        <time>2021-06-23T09:45:49Z</time>
      </trkpt>
      <trkpt lat="48.05913" lon="6.99343">
        <ele>1051.93</ele>
        <time>2021-06-23T09:45:50Z</time>
      </trkpt>
      <trkpt lat="48.05938" lon="6.99321">
        <ele>1050.77</ele>
        <time>2021-06-23T09:45:52Z</time>
      </trkpt>
      <trkpt lat="48.05938" lon="6.99321">
        <ele>1050.77</ele>
        <time>2021-06-23T09:45:52Z</time>
      </trkpt>
      <trkpt lat="48.05951" lon="6.99316">
        <ele>1048.92</ele>
        <time>2021-06-23T09:45:54Z</time>
      </trkpt>
      <trkpt lat="48.05964" lon="6.99317">
        <ele>1048.65</ele>
        <time>2021-06-23T09:45:55Z</time>
      </trkpt>
      <trkpt lat="48.05989" lon="6.99326">
        <ele>1050.47</ele>
        <time>2021-06-23T09:45:57Z</time>
      </trkpt>
      <trkpt lat="48.06008" lon="6.99338">
        <ele>1052.45</ele>
        <time>2021-06-23T09:45:59Z</time>
      </trkpt>
      <trkpt lat="48.0603" lon="6.99357">
        <ele>1053.54</ele>
        <time>2021-06-23T09:46:00Z</time>
      </trkpt>
      <trkpt lat="48.06047" lon="6.99376">
        <ele>1052.76</ele>
        <time>2021-06-23T09:46:02Z</time>
      </trkpt>
      <trkpt lat="48.06071" lon="6.99408">
        <ele>1050.15</ele>
        <time>2021-06-23T09:46:04Z</time>
      </trkpt>
      <trkpt lat="48.06095" lon="6.9945">
        <ele>1053.14</ele>
        <time>2021-06-23T09:46:05Z</time>
      </trkpt>
      <trkpt lat="48.06108" lon="6.99487">
        <ele>1056.45</ele>
        <time>2021-06-23T09:46:07Z</time>
      </trkpt>
      <trkpt lat="48.06121" lon="6.99544">
        <ele>1059.44</ele>
        <time>2021-06-23T09:46:09Z</time>
      </trkpt>
      <trkpt lat="48.06132" lon="6.99573">
        <ele>1059.02</ele>
        <time>2021-06-23T09:46:10Z</time>
      </trkpt>
      <trkpt lat="48.06151" lon="6.99606">
        <ele>1060.42</ele>
        <time>2021-06-23T09:46:12Z</time>
      </trkpt>
      <trkpt lat="48.06168" lon="6.99627">
        <ele>1061.3</ele>
        <time>2021-06-23T09:46:14Z</time>
      </trkpt>
      <trkpt lat="48.06168" lon="6.99627">
        <ele>1061.3</ele>
        <time>2021-06-23T09:46:14Z</time>
      </trkpt>
      <trkpt lat="48.06178" lon="6.9963">
        <ele>1062.02</ele>
        <time>2021-06-23T09:46:15Z</time>
      </trkpt>
      <trkpt lat="48.06185" lon="6.99628">
        <ele>1061.83</ele>
        <time>2021-06-23T09:46:17Z</time>
      </trkpt>
      <trkpt lat="48.06221" lon="6.9958">
        <ele>1048.73</ele>
        <time>2021-06-23T09:46:18Z</time>
      </trkpt>
      <trkpt lat="48.06252" lon="6.99545">
        <ele>1044.44</ele>
        <time>2021-06-23T09:46:19Z</time>
      </trkpt>
      <trkpt lat="48.06261" lon="6.99539">
        <ele>1044.07</ele>
        <time>2021-06-23T09:46:21Z</time>
      </trkpt>
      <trkpt lat="48.06272" lon="6.99534">
        <ele>1044.38</ele>
        <time>2021-06-23T09:46:22Z</time>
      </trkpt>
      <trkpt lat="48.06289" lon="6.99531">
        <ele>1043.63</ele>
        <time>2021-06-23T09:46:24Z</time>
      </trkpt>
      <trkpt lat="48.06322" lon="6.99531">
        <ele>1043.74</ele>
        <time>2021-06-23T09:46:25Z</time>
      </trkpt>
      <trkpt lat="48.0636" lon="6.99527">
        <ele>1047.64</ele>
        <time>2021-06-23T09:46:27Z</time>
      </trkpt>
      <trkpt lat="48.06372" lon="6.99523">
        <ele>1048.69</ele>
        <time>2021-06-23T09:46:28Z</time>
      </trkpt>
      <trkpt lat="48.06378" lon="6.99516">
        <ele>1047.61</ele>
        <time>2021-06-23T09:46:29Z</time>
      </trkpt>
      <trkpt lat="48.06378" lon="6.99516">
        <ele>1047.61</ele>
        <time>2021-06-23T09:46:29Z</time>
      </trkpt>
      <trkpt lat="48.06381" lon="6.99505">
        <ele>1046.93</ele>
        <time>2021-06-23T09:46:31Z</time>
      </trkpt>
      <trkpt lat="48.06381" lon="6.99492">
        <ele>1045.26</ele>
        <time>2021-06-23T09:46:33Z</time>
      </trkpt>
      <trkpt lat="48.06379" lon="6.99481">
        <ele>1043.37</ele>
        <time>2021-06-23T09:46:34Z</time>
      </trkpt>
      <trkpt lat="48.06349" lon="6.99374">
        <ele>1031.06</ele>
        <time>2021-06-23T09:46:36Z</time>
      </trkpt>
      <trkpt lat="48.06327" lon="6.9925">
        <ele>1030.44</ele>
        <time>2021-06-23T09:46:38Z</time>
      </trkpt>
      <trkpt lat="48.06327" lon="6.99232">
        <ele>1028.18</ele>
        <time>2021-06-23T09:46:39Z</time>
      </trkpt>
      <trkpt lat="48.06332" lon="6.99216">
        <ele>1027.61</ele>
        <time>2021-06-23T09:46:41Z</time>
      </trkpt>
      <trkpt lat="48.06337" lon="6.99206">
        <ele>1027.44</ele>
        <time>2021-06-23T09:46:43Z</time>
      </trkpt>
      <trkpt lat="48.06343" lon="6.99197">
        <ele>1027.39</ele>
        <time>2021-06-23T09:46:44Z</time>
      </trkpt>
      <trkpt lat="48.06372" lon="6.99167">
        <ele>1026.18</ele>
        <time>2021-06-23T09:46:46Z</time>
      </trkpt>
      <trkpt lat="48.06398" lon="6.99121">
        <ele>1026.55</ele>
        <time>2021-06-23T09:46:48Z</time>
      </trkpt>
      <trkpt lat="48.06416" lon="6.99094">
        <ele>1032.07</ele>
        <time>2021-06-23T09:46:49Z</time>
      </trkpt>
      <trkpt lat="48.06422" lon="6.99078">
        <ele>1035.33</ele>
        <time>2021-06-23T09:46:51Z</time>
      </trkpt>
      <trkpt lat="48.06422" lon="6.99065">
        <ele>1036.06</ele>
        <time>2021-06-23T09:46:53Z</time>
      </trkpt>
      <trkpt lat="48.06422" lon="6.99065">
        <ele>1036.06</ele>
        <time>2021-06-23T09:46:53Z</time>
      </trkpt>
      <trkpt lat="48.06416" lon="6.99047">
        <ele>1037.09</ele>
        <time>2021-06-23T09:46:54Z</time>
      </trkpt>
      <trkpt lat="48.06387" lon="6.99012">
        <ele>1031.21</ele>
        <time>2021-06-23T09:46:56Z</time>
      </trkpt>
      <trkpt lat="48.06371" lon="6.98986">
        <ele>1028.37</ele>
        <time>2021-06-23T09:46:57Z</time>
      </trkpt>
      <trkpt lat="48.06354" lon="6.98952">
        <ele>1025.88</ele>
        <time>2021-06-23T09:46:59Z</time>
      </trkpt>
      <trkpt lat="48.06317" lon="6.9889">
        <ele>1020.13</ele>
        <time>2021-06-23T09:47:01Z</time>
      </trkpt>
      <trkpt lat="48.06294" lon="6.98847">
        <ele>1019.13</ele>
        <time>2021-06-23T09:47:02Z</time>
      </trkpt>
      <trkpt lat="48.06276" lon="6.9881">
        <ele>1021.16</ele>
        <time>2021-06-23T09:47:04Z</time>
      </trkpt>
      <trkpt lat="48.06259" lon="6.98767">
        <ele>1016.35</ele>
        <time>2021-06-23T09:47:05Z</time>
      </trkpt>
      <trkpt lat="48.06254" lon="6.98744">
        <ele>1014.1</ele>
        <time>2021-06-23T09:47:07Z</time>
      </trkpt>
      <trkpt lat="48.06252" lon="6.98712">
        <ele>1015.63</ele>
        <time>2021-06-23T09:47:09Z</time>
      </trkpt>
      <trkpt lat="48.06253" lon="6.98662">
        <ele>1023.58</ele>
        <time>2021-06-23T09:47:10Z</time>
      </trkpt>
      <trkpt lat="48.06251" lon="6.98649">
        <ele>1024.27</ele>
        <time>2021-06-23T09:47:12Z</time>
      </trkpt>
      <trkpt lat="48.06246" lon="6.98642">
        <ele>1021.74</ele>
        <time>2021-06-23T09:47:13Z</time>
      </trkpt>
      <trkpt lat="48.0622" lon="6.98623">
        <ele>1009.15</ele>
        <time>2021-06-23T09:47:15Z</time>
      </trkpt>
      <trkpt lat="48.06212" lon="6.98613">
        <ele>1006.25</ele>
        <time>2021-06-23T09:47:17Z</time>
      </trkpt>
      <trkpt lat="48.06207" lon="6.98603">
        <ele>1004.99</ele>
        <time>2021-06-23T09:47:18Z</time>
      </trkpt>
      <trkpt lat="48.06204" lon="6.9859">
        <ele>1006.1</ele>
        <time>2021-06-23T09:47:20Z</time>
      </trkpt>
      <trkpt lat="48.06194" lon="6.98527">
        <ele>1000.34</ele>
        <time>2021-06-23T09:47:22Z</time>
      </trkpt>
      <trkpt lat="48.06184" lon="6.98488">
        <ele>988.99</ele>
        <time>2021-06-23T09:47:23Z</time>
      </trkpt>
      <trkpt lat="48.06183" lon="6.98477">
        <ele>987.82</ele>
        <time>2021-06-23T09:47:25Z</time>
      </trkpt>
      <trkpt lat="48.06183" lon="6.98477">
        <ele>987.82</ele>
        <time>2021-06-23T09:47:25Z</time>
      </trkpt>
      <trkpt lat="48.06186" lon="6.98459">
        <ele>988.2</ele>
        <time>2021-06-23T09:47:27Z</time>
      </trkpt>
      <trkpt lat="48.0619" lon="6.98444">
        <ele>990.45</ele>
        <time>2021-06-23T09:47:29Z</time>
      </trkpt>
      <trkpt lat="48.06207" lon="6.98398">
        <ele>998.03</ele>
        <time>2021-06-23T09:47:31Z</time>
      </trkpt>
      <trkpt lat="48.06224" lon="6.98341">
        <ele>986.11</ele>
        <time>2021-06-23T09:47:33Z</time>
      </trkpt>
      <trkpt lat="48.06228" lon="6.98329">
        <ele>983.7</ele>
        <time>2021-06-23T09:47:35Z</time>
      </trkpt>
      <trkpt lat="48.06235" lon="6.98316">
        <ele>984.14</ele>
        <time>2021-06-23T09:47:37Z</time>
      </trkpt>
      <trkpt lat="48.06261" lon="6.98279">
        <ele>982.95</ele>
        <time>2021-06-23T09:47:39Z</time>
      </trkpt>
      <trkpt lat="48.06291" lon="6.9824">
        <ele>977.67</ele>
        <time>2021-06-23T09:47:41Z</time>
      </trkpt>
      <trkpt lat="48.06338" lon="6.98185">
        <ele>981.91</ele>
        <time>2021-06-23T09:47:43Z</time>
      </trkpt>
      <trkpt lat="48.0635" lon="6.98168">
        <ele>981.84</ele>
        <time>2021-06-23T09:47:45Z</time>
      </trkpt>
      <trkpt lat="48.06382" lon="6.98118">
        <ele>979.54</ele>
        <time>2021-06-23T09:47:47Z</time>
      </trkpt>
      <trkpt lat="48.06413" lon="6.98088">
        <ele>977.39</ele>
        <time>2021-06-23T09:47:49Z</time>
      </trkpt>
      <trkpt lat="48.06439" lon="6.98064">
        <ele>979.65</ele>
        <time>2021-06-23T09:47:50Z</time>
      </trkpt>
      <trkpt lat="48.06472" lon="6.98045">
        <ele>974.49</ele>
        <time>2021-06-23T09:47:52Z</time>
      </trkpt>
      <trkpt lat="48.06488" lon="6.9804">
        <ele>972.7</ele>
        <time>2021-06-23T09:47:54Z</time>
      </trkpt>
      <trkpt lat="48.06561" lon="6.98027">
        <ele>976.69</ele>
        <time>2021-06-23T09:47:56Z</time>
      </trkpt>
      <trkpt lat="48.06574" lon="6.98018">
        <ele>979.98</ele>
        <time>2021-06-23T09:47:58Z</time>
      </trkpt>
      <trkpt lat="48.06579" lon="6.98002">
        <ele>981.11</ele>
        <time>2021-06-23T09:48:00Z</time>
      </trkpt>
      <trkpt lat="48.06579" lon="6.98002">
        <ele>981.11</ele>
        <time>2021-06-23T09:48:00Z</time>
      </trkpt>
      <trkpt lat="48.0658" lon="6.97994">
        <ele>981.14</ele>
        <time>2021-06-23T09:48:02Z</time>
      </trkpt>
      <trkpt lat="48.06577" lon="6.97979">
        <ele>979.63</ele>
        <time>2021-06-23T09:48:04Z</time>
      </trkpt>
      <trkpt lat="48.06535" lon="6.97888">
        <ele>971.41</ele>
        <time>2021-06-23T09:48:06Z</time>
      </trkpt>
      <trkpt lat="48.06521" lon="6.97853">
        <ele>970.09</ele>
        <time>2021-06-23T09:48:08Z</time>
      </trkpt>
      <trkpt lat="48.06506" lon="6.97808">
        <ele>967.1</ele>
        <time>2021-06-23T09:48:10Z</time>
      </trkpt>
      <trkpt lat="48.06502" lon="6.9779">
        <ele>963.43</ele>
        <time>2021-06-23T09:48:13Z</time>
      </trkpt>
      <trkpt lat="48.06499" lon="6.9777">
        <ele>959.21</ele>
        <time>2021-06-23T09:48:15Z</time>
      </trkpt>
      <trkpt lat="48.06498" lon="6.97714">
        <ele>950.96</ele>
        <time>2021-06-23T09:48:17Z</time>
      </trkpt>
      <trkpt lat="48.06505" lon="6.97632">
        <ele>949.16</ele>
        <time>2021-06-23T09:48:19Z</time>
      </trkpt>
      <trkpt lat="48.06502" lon="6.97608">
        <ele>950.36</ele>
        <time>2021-06-23T09:48:21Z</time>
      </trkpt>
      <trkpt lat="48.06497" lon="6.9759">
        <ele>950.28</ele>
        <time>2021-06-23T09:48:23Z</time>
      </trkpt>
      <trkpt lat="48.06477" lon="6.97543">
        <ele>946.99</ele>
        <time>2021-06-23T09:48:25Z</time>
      </trkpt>
      <trkpt lat="48.06468" lon="6.9751">
        <ele>941.21</ele>
        <time>2021-06-23T09:48:27Z</time>
      </trkpt>
      <trkpt lat="48.06463" lon="6.97481">
        <ele>938.58</ele>
        <time>2021-06-23T09:48:29Z</time>
      </trkpt>
      <trkpt lat="48.06459" lon="6.97409">
        <ele>938.08</ele>
        <time>2021-06-23T09:48:31Z</time>
      </trkpt>
      <trkpt lat="48.06459" lon="6.97362">
        <ele>932.85</ele>
        <time>2021-06-23T09:48:33Z</time>
      </trkpt>
      <trkpt lat="48.06464" lon="6.97324">
        <ele>929.5</ele>
        <time>2021-06-23T09:48:35Z</time>
      </trkpt>
      <trkpt lat="48.06487" lon="6.97236">
        <ele>922.02</ele>
        <time>2021-06-23T09:48:37Z</time>
      </trkpt>
      <trkpt lat="48.06487" lon="6.97236">
        <ele>922.02</ele>
        <time>2021-06-23T09:48:37Z</time>
      </trkpt>
      <trkpt lat="48.06567" lon="6.9704">
        <ele>919.89</ele>
        <time>2021-06-23T09:48:43Z</time>
      </trkpt>
      <trkpt lat="48.06622" lon="6.96926">
        <ele>910.31</ele>
        <time>2021-06-23T09:48:49Z</time>
      </trkpt>
      <trkpt lat="48.0673" lon="6.96719">
        <ele>902.92</ele>
        <time>2021-06-23T09:48:55Z</time>
      </trkpt>
      <trkpt lat="48.06818" lon="6.96601">
        <ele>897.34</ele>
        <time>2021-06-23T09:49:02Z</time>
      </trkpt>
      <trkpt lat="48.06837" lon="6.96567">
        <ele>896.33</ele>
        <time>2021-06-23T09:49:08Z</time>
      </trkpt>
      <trkpt lat="48.06846" lon="6.96547">
        <ele>896.3</ele>
        <time>2021-06-23T09:49:14Z</time>
      </trkpt>
      <trkpt lat="48.06853" lon="6.96517">
        <ele>894.89</ele>
        <time>2021-06-23T09:49:20Z</time>
      </trkpt>
      <trkpt lat="48.06853" lon="6.96472">
        <ele>890.22</ele>
        <time>2021-06-23T09:49:26Z</time>
      </trkpt>
      <trkpt lat="48.06858" lon="6.96442">
        <ele>888.86</ele>
        <time>2021-06-23T09:49:32Z</time>
      </trkpt>
      <trkpt lat="48.06934" lon="6.96169">
        <ele>878.84</ele>
        <time>2021-06-23T09:49:39Z</time>
      </trkpt>
      <trkpt lat="48.07014" lon="6.95906">
        <ele>868.57</ele>
        <time>2021-06-23T09:49:45Z</time>
      </trkpt>
      <trkpt lat="48.07049" lon="6.95802">
        <ele>863.17</ele>
        <time>2021-06-23T09:49:51Z</time>
      </trkpt>
      <trkpt lat="48.07096" lon="6.95686">
        <ele>844.52</ele>
        <time>2021-06-23T09:49:57Z</time>
      </trkpt>
      <trkpt lat="48.0716" lon="6.95586">
        <ele>848.87</ele>
        <time>2021-06-23T09:50:03Z</time>
      </trkpt>
      <trkpt lat="48.0716" lon="6.95586">
        <ele>848.87</ele>
        <time>2021-06-23T09:50:03Z</time>
      </trkpt>
      <trkpt lat="48.07282" lon="6.95445">
        <ele>837</ele>
        <time>2021-06-23T09:50:09Z</time>
      </trkpt>
      <trkpt lat="48.07385" lon="6.95346">
        <ele>831.55</ele>
        <time>2021-06-23T09:50:15Z</time>
      </trkpt>
      <trkpt lat="48.0743" lon="6.95309">
        <ele>824.18</ele>
        <time>2021-06-23T09:50:21Z</time>
      </trkpt>
      <trkpt lat="48.07497" lon="6.95266">
        <ele>818.35</ele>
        <time>2021-06-23T09:50:26Z</time>
      </trkpt>
      <trkpt lat="48.07596" lon="6.95209">
        <ele>812.82</ele>
        <time>2021-06-23T09:50:32Z</time>
      </trkpt>
      <trkpt lat="48.07695" lon="6.95159">
        <ele>808.52</ele>
        <time>2021-06-23T09:50:38Z</time>
      </trkpt>
      <trkpt lat="48.07778" lon="6.95105">
        <ele>794.94</ele>
        <time>2021-06-23T09:50:44Z</time>
      </trkpt>
      <trkpt lat="48.07852" lon="6.95047">
        <ele>786.17</ele>
        <time>2021-06-23T09:50:49Z</time>
      </trkpt>
      <trkpt lat="48.07997" lon="6.94913">
        <ele>778.29</ele>
        <time>2021-06-23T09:50:55Z</time>
      </trkpt>
      <trkpt lat="48.08026" lon="6.94894">
        <ele>773.62</ele>
        <time>2021-06-23T09:51:01Z</time>
      </trkpt>
      <trkpt lat="48.08212" lon="6.94784">
        <ele>753.89</ele>
        <time>2021-06-23T09:51:07Z</time>
      </trkpt>
      <trkpt lat="48.08257" lon="6.94755">
        <ele>748.99</ele>
        <time>2021-06-23T09:51:12Z</time>
      </trkpt>
      <trkpt lat="48.08268" lon="6.94746">
        <ele>748.13</ele>
        <time>2021-06-23T09:51:18Z</time>
      </trkpt>
      <trkpt lat="48.08292" lon="6.94719">
        <ele>745.82</ele>
        <time>2021-06-23T09:51:24Z</time>
      </trkpt>
      <trkpt lat="48.08306" lon="6.94697">
        <ele>745.2</ele>
        <time>2021-06-23T09:51:30Z</time>
      </trkpt>
      <trkpt lat="48.08306" lon="6.94697">
        <ele>746.16</ele>
        <time>2021-06-23T09:51:30Z</time>
      </trkpt>
      <trkpt lat="48.08306" lon="6.94697">
        <ele>746.16</ele>
        <time>2021-06-23T09:51:30Z</time>
      </trkpt>
      <trkpt lat="48.08306" lon="6.94697">
        <ele>745.2</ele>
        <time>2021-06-23T09:51:30Z</time>
      </trkpt>
      <trkpt lat="48.08317" lon="6.94662">
        <ele>745.37</ele>
        <time>2021-06-23T09:51:41Z</time>
      </trkpt>
      <trkpt lat="48.08321" lon="6.94642">
        <ele>746.08</ele>
        <time>2021-06-23T09:51:52Z</time>
      </trkpt>
      <trkpt lat="48.08323" lon="6.94598">
        <ele>746.53</ele>
        <time>2021-06-23T09:52:03Z</time>
      </trkpt>
      <trkpt lat="48.0831" lon="6.94487">
        <ele>748.52</ele>
        <time>2021-06-23T09:52:14Z</time>
      </trkpt>
      <trkpt lat="48.08312" lon="6.94414">
        <ele>747.72</ele>
        <time>2021-06-23T09:52:25Z</time>
      </trkpt>
      <trkpt lat="48.0835" lon="6.9373">
        <ele>733.76</ele>
        <time>2021-06-23T09:52:36Z</time>
      </trkpt>
      <trkpt lat="48.08381" lon="6.93299">
        <ele>726.28</ele>
        <time>2021-06-23T09:52:47Z</time>
      </trkpt>
      <trkpt lat="48.08392" lon="6.93125">
        <ele>730.16</ele>
        <time>2021-06-23T09:52:58Z</time>
      </trkpt>
      <trkpt lat="48.08399" lon="6.92975">
        <ele>726.57</ele>
        <time>2021-06-23T09:53:09Z</time>
      </trkpt>
      <trkpt lat="48.08399" lon="6.92929">
        <ele>725.7</ele>
        <time>2021-06-23T09:53:20Z</time>
      </trkpt>
      <trkpt lat="48.08396" lon="6.9288">
        <ele>724.47</ele>
        <time>2021-06-23T09:53:31Z</time>
      </trkpt>
      <trkpt lat="48.0839" lon="6.92817">
        <ele>723.16</ele>
        <time>2021-06-23T09:53:42Z</time>
      </trkpt>
      <trkpt lat="48.08385" lon="6.92705">
        <ele>723.7</ele>
        <time>2021-06-23T09:53:53Z</time>
      </trkpt>
      <trkpt lat="48.08377" lon="6.92651">
        <ele>721.37</ele>
        <time>2021-06-23T09:54:04Z</time>
      </trkpt>
      <trkpt lat="48.08377" lon="6.92651">
        <ele>721.37</ele>
        <time>2021-06-23T09:54:04Z</time>
      </trkpt>
      <trkpt lat="48.08377" lon="6.92651">
        <ele>721.84</ele>
        <time>2021-06-23T09:54:04Z</time>
      </trkpt>
      <trkpt lat="48.08433" lon="6.92655">
        <ele>728.55</ele>
        <time>2021-06-23T09:54:07Z</time>
      </trkpt>
      <trkpt lat="48.08468" lon="6.92661">
        <ele>730.8</ele>
        <time>2021-06-23T09:54:11Z</time>
      </trkpt>
      <trkpt lat="48.08474" lon="6.92658">
        <ele>731.13</ele>
        <time>2021-06-23T09:54:15Z</time>
      </trkpt>
      <trkpt lat="48.08478" lon="6.92652">
        <ele>731.41</ele>
        <time>2021-06-23T09:54:18Z</time>
      </trkpt>
      <trkpt lat="48.0848" lon="6.92644">
        <ele>731.57</ele>
        <time>2021-06-23T09:54:22Z</time>
      </trkpt>
      <trkpt lat="48.08479" lon="6.92636">
        <ele>731.81</ele>
        <time>2021-06-23T09:54:26Z</time>
      </trkpt>
      <trkpt lat="48.08476" lon="6.9263">
        <ele>732.3</ele>
        <time>2021-06-23T09:54:29Z</time>
      </trkpt>
      <trkpt lat="48.08459" lon="6.9261">
        <ele>732.73</ele>
        <time>2021-06-23T09:54:33Z</time>
      </trkpt>
      <trkpt lat="48.08457" lon="6.92599">
        <ele>733.86</ele>
        <time>2021-06-23T09:54:36Z</time>
      </trkpt>
      <trkpt lat="48.08458" lon="6.9259">
        <ele>735.16</ele>
        <time>2021-06-23T09:54:40Z</time>
      </trkpt>
      <trkpt lat="48.08462" lon="6.92582">
        <ele>736.5</ele>
        <time>2021-06-23T09:54:44Z</time>
      </trkpt>
      <trkpt lat="48.08473" lon="6.92568">
        <ele>738.06</ele>
        <time>2021-06-23T09:54:47Z</time>
      </trkpt>
      <trkpt lat="48.08482" lon="6.92561">
        <ele>739.02</ele>
        <time>2021-06-23T09:54:51Z</time>
      </trkpt>
      <trkpt lat="48.08555" lon="6.92534">
        <ele>743.43</ele>
        <time>2021-06-23T09:54:55Z</time>
      </trkpt>
      <trkpt lat="48.08589" lon="6.92528">
        <ele>745.31</ele>
        <time>2021-06-23T09:54:58Z</time>
      </trkpt>
      <trkpt lat="48.08589" lon="6.92528">
        <ele>745.31</ele>
        <time>2021-06-23T09:54:58Z</time>
      </trkpt>
      <trkpt lat="48.08609" lon="6.92541">
        <ele>752.4</ele>
        <time>2021-06-23T09:55:03Z</time>
      </trkpt>
      <trkpt lat="48.08621" lon="6.92557">
        <ele>755.1</ele>
        <time>2021-06-23T09:55:09Z</time>
      </trkpt>
      <trkpt lat="48.08664" lon="6.92625">
        <ele>755.35</ele>
        <time>2021-06-23T09:55:15Z</time>
      </trkpt>
      <trkpt lat="48.08695" lon="6.92657">
        <ele>761.14</ele>
        <time>2021-06-23T09:55:21Z</time>
      </trkpt>
      <trkpt lat="48.08723" lon="6.92691">
        <ele>765.46</ele>
        <time>2021-06-23T09:55:26Z</time>
      </trkpt>
      <trkpt lat="48.08725" lon="6.92703">
        <ele>765.4</ele>
        <time>2021-06-23T09:55:32Z</time>
      </trkpt>
      <trkpt lat="48.08723" lon="6.92708">
        <ele>764.9</ele>
        <time>2021-06-23T09:55:33Z</time>
      </trkpt>
    </trkseg>
  </trk>
</gpx>